<?xml version='1.0' encoding='UTF-8'?><gpx version="1.1" creator="JPX - https://github.com/jenetics/jpx" xmlns="http://www.topografix.com/GPX/1/1"><trk><trkseg><trkpt lat="43.917629261989475" lon="12.136645143617788"><ele>282.6666666666667</ele><time>2026-04-08T16:19:20Z</time></trkpt><trkpt lat="43.91769913431316" lon="12.136531623811555"><ele>286.3333333333333</ele><time>2026-04-08T16:19:23Z</time></trkpt><trkpt lat="43.91772709187779" lon="12.13642746386596"><ele>290.0</ele><time>2026-04-08T16:19:26Z</time></trkpt><trkpt lat="43.91773353441262" lon="12.136330657362635"><ele>293.66666666666663</ele><time>2026-04-08T16:19:28Z</time></trkpt><trkpt lat="43.91778683552541" lon="12.136268976370099"><ele>297.3333333333333</ele><time>2026-04-08T16:19:31Z</time></trkpt><trkpt lat="43.91780092860201" lon="12.13618129089351"><ele>301.0</ele><time>2026-04-08T16:19:33Z</time></trkpt><trkpt lat="43.917814978577915" lon="12.136057398091255"><ele>301.0</ele><time>2026-04-08T16:19:36Z</time></trkpt><trkpt lat="43.91782151172122" lon="12.135959803104903"><ele>301.0</ele><time>2026-04-08T16:19:39Z</time></trkpt><trkpt lat="43.91783568340669" lon="12.135856223485401"><ele>301.0</ele><time>2026-04-08T16:19:44Z</time></trkpt><trkpt lat="43.91781906436442" lon="12.135766949353576"><ele>301.0</ele><time>2026-04-08T16:19:47Z</time></trkpt><trkpt lat="43.917809262538995" lon="12.135667796004403"><ele>301.0</ele><time>2026-04-08T16:19:50Z</time></trkpt><trkpt lat="43.917869042736164" lon="12.135702458023678"><ele>301.0</ele><time>2026-04-08T16:20:08Z</time></trkpt><trkpt lat="43.91793722386446" lon="12.135644084539429"><ele>301.0</ele><time>2026-04-08T16:20:12Z</time></trkpt><trkpt lat="43.91798108599271" lon="12.13554831365231"><ele>300.66666666666663</ele><time>2026-04-08T16:20:16Z</time></trkpt><trkpt lat="43.91804485541809" lon="12.135552730179562"><ele>300.3333333333333</ele><time>2026-04-08T16:20:28Z</time></trkpt><trkpt lat="43.918082973991666" lon="12.13544563501792"><ele>300.0</ele><time>2026-04-08T16:20:33Z</time></trkpt><trkpt lat="43.918157990262394" lon="12.135436199082708"><ele>299.6666666666667</ele><time>2026-04-08T16:20:37Z</time></trkpt><trkpt lat="43.918185635597105" lon="12.135539343470606"><ele>299.33333333333337</ele><time>2026-04-08T16:20:51Z</time></trkpt><trkpt lat="43.91825992150104" lon="12.135587484400459"><ele>299.0</ele><time>2026-04-08T16:20:54Z</time></trkpt><trkpt lat="43.918316842691254" lon="12.135625913864194"><ele>299.0</ele><time>2026-04-08T16:21:00Z</time></trkpt><trkpt lat="43.918363407977274" lon="12.135551503152984"><ele>299.0</ele><time>2026-04-08T16:21:04Z</time></trkpt><trkpt lat="43.91842122966523" lon="12.13548305895906"><ele>299.0</ele><time>2026-04-08T16:21:08Z</time></trkpt><trkpt lat="43.918485857796014" lon="12.135420280960897"><ele>299.0</ele><time>2026-04-08T16:21:11Z</time></trkpt><trkpt lat="43.918531977024834" lon="12.135348387118858"><ele>299.0</ele><time>2026-04-08T16:21:13Z</time></trkpt><trkpt lat="43.91858882110564" lon="12.135274905488739"><ele>299.0</ele><time>2026-04-08T16:21:16Z</time></trkpt><trkpt lat="43.91862089900493" lon="12.13519315371874"><ele>299.0</ele><time>2026-04-08T16:21:18Z</time></trkpt><trkpt lat="43.91867480403013" lon="12.135131732730748"><ele>299.83333333333337</ele><time>2026-04-08T16:21:21Z</time></trkpt><trkpt lat="43.91871264863577" lon="12.135043609779299"><ele>300.6666666666667</ele><time>2026-04-08T16:21:24Z</time></trkpt><trkpt lat="43.91873849269152" lon="12.134933172211415"><ele>301.5</ele><time>2026-04-08T16:21:27Z</time></trkpt><trkpt lat="43.91874648312768" lon="12.134818802413864"><ele>302.3333333333333</ele><time>2026-04-08T16:21:30Z</time></trkpt><trkpt lat="43.91876178717853" lon="12.134719513994687"><ele>303.16666666666663</ele><time>2026-04-08T16:21:32Z</time></trkpt><trkpt lat="43.91876314670509" lon="12.134618115595833"><ele>304.0</ele><time>2026-04-08T16:21:35Z</time></trkpt><trkpt lat="43.918819088287655" lon="12.134529165148384"><ele>304.0</ele><time>2026-04-08T16:21:41Z</time></trkpt><trkpt lat="43.91885973805867" lon="12.13444818503526"><ele>304.0</ele><time>2026-04-08T16:21:44Z</time></trkpt><trkpt lat="43.918923331515494" lon="12.134418775280785"><ele>304.0</ele><time>2026-04-08T16:21:46Z</time></trkpt><trkpt lat="43.91898193203212" lon="12.13433508387593"><ele>304.0</ele><time>2026-04-08T16:21:51Z</time></trkpt><trkpt lat="43.919016874024095" lon="12.13423668128819"><ele>304.0</ele><time>2026-04-08T16:21:55Z</time></trkpt><trkpt lat="43.91901560169696" lon="12.134136374242006"><ele>304.0</ele><time>2026-04-08T16:22:00Z</time></trkpt><trkpt lat="43.918939100172736" lon="12.134149948581344"><ele>304.0</ele><time>2026-04-08T16:22:04Z</time></trkpt><trkpt lat="43.918879149822146" lon="12.1341200335565"><ele>304.0</ele><time>2026-04-08T16:22:08Z</time></trkpt><trkpt lat="43.91881391132651" lon="12.134135511112778"><ele>304.0</ele><time>2026-04-08T16:22:12Z</time></trkpt><trkpt lat="43.91875670987204" lon="12.134211744477964"><ele>304.0</ele><time>2026-04-08T16:22:21Z</time></trkpt><trkpt lat="43.9187316251577" lon="12.134328504239656"><ele>304.0</ele><time>2026-04-08T16:22:26Z</time></trkpt><trkpt lat="43.918709856040714" lon="12.134418123351148"><ele>304.0</ele><time>2026-04-08T16:22:29Z</time></trkpt><trkpt lat="43.9186652290609" lon="12.134483521356056"><ele>304.0</ele><time>2026-04-08T16:22:36Z</time></trkpt><trkpt lat="43.91863107894083" lon="12.134366393227536"><ele>304.0</ele><time>2026-04-08T16:22:41Z</time></trkpt><trkpt lat="43.91857507672284" lon="12.134316118538962"><ele>304.0</ele><time>2026-04-08T16:22:45Z</time></trkpt><trkpt lat="43.9185314005265" lon="12.134237458472377"><ele>304.0</ele><time>2026-04-08T16:22:48Z</time></trkpt><trkpt lat="43.9184783809646" lon="12.13414166167013"><ele>304.0</ele><time>2026-04-08T16:22:53Z</time></trkpt><trkpt lat="43.91841619782598" lon="12.134071366107932"><ele>304.0</ele><time>2026-04-08T16:22:56Z</time></trkpt><trkpt lat="43.91835416882202" lon="12.134020644875145"><ele>304.0</ele><time>2026-04-08T16:22:59Z</time></trkpt><trkpt lat="43.91830826219423" lon="12.133960069105784"><ele>304.0</ele><time>2026-04-08T16:23:02Z</time></trkpt><trkpt lat="43.91824868766476" lon="12.133900391022115"><ele>301.2857142857143</ele><time>2026-04-08T16:23:15Z</time></trkpt><trkpt lat="43.91825729818055" lon="12.133991851405622"><ele>298.5714285714286</ele><time>2026-04-08T16:23:38Z</time></trkpt><trkpt lat="43.91829084591293" lon="12.134087668662902"><ele>295.8571428571429</ele><time>2026-04-08T16:23:48Z</time></trkpt><trkpt lat="43.918263030958634" lon="12.134174764189146"><ele>293.1428571428571</ele><time>2026-04-08T16:23:54Z</time></trkpt><trkpt lat="43.918270285392964" lon="12.134264897015587"><ele>290.42857142857144</ele><time>2026-04-08T16:23:57Z</time></trkpt><trkpt lat="43.918286407824525" lon="12.134171488396559"><ele>287.7142857142857</ele><time>2026-04-08T16:24:10Z</time></trkpt><trkpt lat="43.91828606303961" lon="12.134076095154102"><ele>285.0</ele><time>2026-04-08T16:24:14Z</time></trkpt><trkpt lat="43.918320191394464" lon="12.133994679334535"><ele>285.0</ele><time>2026-04-08T16:24:18Z</time></trkpt><trkpt lat="43.918376160091114" lon="12.134056680351613"><ele>285.0</ele><time>2026-04-08T16:24:22Z</time></trkpt><trkpt lat="43.91842625545195" lon="12.134144877075347"><ele>285.0</ele><time>2026-04-08T16:24:26Z</time></trkpt><trkpt lat="43.918462558704896" lon="12.134223715361065"><ele>285.0</ele><time>2026-04-08T16:24:30Z</time></trkpt><trkpt lat="43.918519125411265" lon="12.134315345969563"><ele>285.0</ele><time>2026-04-08T16:24:34Z</time></trkpt><trkpt lat="43.91854555257138" lon="12.134418404205674"><ele>285.0</ele><time>2026-04-08T16:24:54.001Z</time></trkpt><trkpt lat="43.91851184593312" lon="12.134342113246417"><ele>285.0</ele><time>2026-04-08T16:25:27Z</time></trkpt><trkpt lat="43.91847993035602" lon="12.134261247301506"><ele>285.0</ele><time>2026-04-08T16:25:33Z</time></trkpt><trkpt lat="43.91842946683049" lon="12.134189994016635"><ele>285.0</ele><time>2026-04-08T16:25:38Z</time></trkpt><trkpt lat="43.91837724492306" lon="12.134110923883995"><ele>285.0</ele><time>2026-04-08T16:25:46Z</time></trkpt><trkpt lat="43.9183401574674" lon="12.134037805233472"><ele>285.0</ele><time>2026-04-08T16:25:50Z</time></trkpt><trkpt lat="43.918399218892155" lon="12.134074907791069"><ele>285.0</ele><time>2026-04-08T16:26:00Z</time></trkpt><trkpt lat="43.918449163347674" lon="12.134145400336761"><ele>285.0</ele><time>2026-04-08T16:26:04Z</time></trkpt><trkpt lat="43.9184889353946" lon="12.134226621188704"><ele>287.7142857142857</ele><time>2026-04-08T16:26:18Z</time></trkpt><trkpt lat="43.918533741966534" lon="12.134301970865968"><ele>290.42857142857144</ele><time>2026-04-08T16:26:22Z</time></trkpt><trkpt lat="43.918601429899795" lon="12.134374491041212"><ele>293.1428571428571</ele><time>2026-04-08T16:26:26Z</time></trkpt><trkpt lat="43.91865258023855" lon="12.134447080096681"><ele>295.8571428571429</ele><time>2026-04-08T16:26:29Z</time></trkpt><trkpt lat="43.91871650492176" lon="12.134472782615568"><ele>298.5714285714286</ele><time>2026-04-08T16:26:33Z</time></trkpt><trkpt lat="43.91876020236552" lon="12.134545240102437"><ele>301.2857142857143</ele><time>2026-04-08T16:26:39Z</time></trkpt><trkpt lat="43.91875534612808" lon="12.134645134595374"><ele>304.0</ele><time>2026-04-08T16:26:49Z</time></trkpt><trkpt lat="43.918769032303935" lon="12.134766001020527"><ele>304.0</ele><time>2026-04-08T16:26:52Z</time></trkpt><trkpt lat="43.91875413766856" lon="12.134876241391295"><ele>304.0</ele><time>2026-04-08T16:26:55Z</time></trkpt><trkpt lat="43.9187366395725" lon="12.134960309062608"><ele>304.0</ele><time>2026-04-08T16:26:57Z</time></trkpt><trkpt lat="43.91868682240241" lon="12.135069458526548"><ele>304.0</ele><time>2026-04-08T16:27:00Z</time></trkpt><trkpt lat="43.918626522011934" lon="12.135171500131733"><ele>304.0</ele><time>2026-04-08T16:27:03Z</time></trkpt><trkpt lat="43.91858600017808" lon="12.135259369377872"><ele>304.0</ele><time>2026-04-08T16:27:06Z</time></trkpt><trkpt lat="43.91853764902987" lon="12.135332695543303"><ele>303.2857142857143</ele><time>2026-04-08T16:27:09Z</time></trkpt><trkpt lat="43.918470824068166" lon="12.13537000379413"><ele>302.5714285714286</ele><time>2026-04-08T16:27:12Z</time></trkpt><trkpt lat="43.91840012037326" lon="12.13538367375478"><ele>301.8571428571429</ele><time>2026-04-08T16:27:19Z</time></trkpt><trkpt lat="43.918321956704574" lon="12.13539032063265"><ele>301.1428571428571</ele><time>2026-04-08T16:27:22Z</time></trkpt><trkpt lat="43.918257780310725" lon="12.135382410381498"><ele>300.42857142857144</ele><time>2026-04-08T16:27:25Z</time></trkpt><trkpt lat="43.91819413271273" lon="12.135371602987531"><ele>299.7142857142857</ele><time>2026-04-08T16:27:42Z</time></trkpt><trkpt lat="43.91814646063308" lon="12.135429023810014"><ele>299.0</ele><time>2026-04-08T16:28:10Z</time></trkpt><trkpt lat="43.91815168571027" lon="12.135523189760992"><ele>299.0</ele><time>2026-04-08T16:28:15Z</time></trkpt><trkpt lat="43.91821335467879" lon="12.13556137320778"><ele>299.0</ele><time>2026-04-08T16:28:18Z</time></trkpt><trkpt lat="43.91828473393894" lon="12.135593770597744"><ele>299.0</ele><time>2026-04-08T16:28:22Z</time></trkpt><trkpt lat="43.91830333356381" lon="12.135681551962548"><ele>299.0</ele><time>2026-04-08T16:28:25Z</time></trkpt><trkpt lat="43.918336598071946" lon="12.13577625274594"><ele>299.0</ele><time>2026-04-08T16:28:30Z</time></trkpt><trkpt lat="43.918310829806224" lon="12.135865141074536"><ele>299.0</ele><time>2026-04-08T16:28:32Z</time></trkpt><trkpt lat="43.91825808984307" lon="12.135921738275744"><ele>299.0</ele><time>2026-04-08T16:28:34Z</time></trkpt><trkpt lat="43.91821420820875" lon="12.135984648096278"><ele>299.33333333333337</ele><time>2026-04-08T16:28:37Z</time></trkpt><trkpt lat="43.91815442884075" lon="12.136046343488514"><ele>299.6666666666667</ele><time>2026-04-08T16:28:39Z</time></trkpt><trkpt lat="43.91810394191379" lon="12.136193446029248"><ele>300.0</ele><time>2026-04-08T16:28:41Z</time></trkpt><trkpt lat="43.91808661025604" lon="12.136316869188366"><ele>300.3333333333333</ele><time>2026-04-08T16:28:43Z</time></trkpt><trkpt lat="43.91804148832848" lon="12.136382983420038"><ele>300.66666666666663</ele><time>2026-04-08T16:28:44Z</time></trkpt><trkpt lat="43.91796615063152" lon="12.136462963998166"><ele>301.0</ele><time>2026-04-08T16:28:46Z</time></trkpt><trkpt lat="43.91790928576508" lon="12.136511457781406"><ele>301.0</ele><time>2026-04-08T16:28:48Z</time></trkpt><trkpt lat="43.91781718694832" lon="12.136546062512542"><ele>301.0</ele><time>2026-04-08T16:28:51Z</time></trkpt><trkpt lat="43.91773595169849" lon="12.13659321084066"><ele>301.0</ele><time>2026-04-08T16:28:54Z</time></trkpt><trkpt lat="43.917665153105794" lon="12.136665291752257"><ele>301.0</ele><time>2026-04-08T16:28:58Z</time></trkpt><trkpt lat="43.9176093405448" lon="12.136789092770458"><ele>301.0</ele><time>2026-04-08T16:29:01Z</time></trkpt><trkpt lat="43.91754408845064" lon="12.136850480757177"><ele>297.3333333333333</ele><time>2026-04-08T16:29:04Z</time></trkpt><trkpt lat="43.91755297063285" lon="12.13694317523642"><ele>293.66666666666663</ele><time>2026-04-08T16:29:07Z</time></trkpt><trkpt lat="43.91763890575745" lon="12.137006550001662"><ele>290.0</ele><time>2026-04-08T16:29:11Z</time></trkpt><trkpt lat="43.91770410334394" lon="12.136986842364786"><ele>286.3333333333333</ele><time>2026-04-08T16:29:13Z</time></trkpt><trkpt lat="43.91775878551299" lon="12.136929969545811"><ele>282.6666666666667</ele><time>2026-04-08T16:29:16Z</time></trkpt><trkpt lat="43.91779381067456" lon="12.136850787329717"><ele>279.0</ele><time>2026-04-08T16:29:19Z</time></trkpt><trkpt lat="43.917876616814326" lon="12.136836538102301"><ele>278.99999999999994</ele><time>2026-04-08T16:29:21Z</time></trkpt><trkpt lat="43.917941419390644" lon="12.136837675386495"><ele>279.0</ele><time>2026-04-08T16:29:25Z</time></trkpt><trkpt lat="43.9180057917671" lon="12.136787882919293"><ele>279.0</ele><time>2026-04-08T16:29:29Z</time></trkpt><trkpt lat="43.91806240866311" lon="12.136827730477577"><ele>279.0</ele><time>2026-04-08T16:29:36Z</time></trkpt><trkpt lat="43.91813258321159" lon="12.136786295765278"><ele>279.0</ele><time>2026-04-08T16:29:43Z</time></trkpt><trkpt lat="43.91818365886998" lon="12.136703349887085"><ele>278.99999999999994</ele><time>2026-04-08T16:29:46Z</time></trkpt><trkpt lat="43.91827083225387" lon="12.13670241996227"><ele>279.0</ele><time>2026-04-08T16:29:49Z</time></trkpt><trkpt lat="43.91834765649153" lon="12.136729764054014"><ele>275.4285714285714</ele><time>2026-04-08T16:29:53Z</time></trkpt><trkpt lat="43.918420320767844" lon="12.136705044397802"><ele>271.85714285714283</ele><time>2026-04-08T16:30:01Z</time></trkpt><trkpt lat="43.91848624501573" lon="12.136705982655503"><ele>268.2857142857143</ele><time>2026-04-08T16:30:07Z</time></trkpt><trkpt lat="43.91853252376395" lon="12.136769749117637"><ele>264.71428571428567</ele><time>2026-04-08T16:30:21Z</time></trkpt><trkpt lat="43.91859920549962" lon="12.136818064875559"><ele>261.1428571428571</ele><time>2026-04-08T16:30:51Z</time></trkpt><trkpt lat="43.91865461404795" lon="12.136869159947654"><ele>257.57142857142856</ele><time>2026-04-08T16:30:57Z</time></trkpt><trkpt lat="43.91871392996809" lon="12.136906791606506"><ele>254.0</ele><time>2026-04-08T16:31:05Z</time></trkpt><trkpt lat="43.91868938836528" lon="12.136996350934817"><ele>254.00000000000003</ele><time>2026-04-08T16:31:26Z</time></trkpt><trkpt lat="43.918749186560866" lon="12.137043881995222"><ele>254.0</ele><time>2026-04-08T16:31:32Z</time></trkpt><trkpt lat="43.91882762731375" lon="12.13710771316376"><ele>254.0</ele><time>2026-04-08T16:31:37Z</time></trkpt><trkpt lat="43.918889159018555" lon="12.13716100765314"><ele>254.0</ele><time>2026-04-08T16:31:42Z</time></trkpt><trkpt lat="43.91893493955376" lon="12.137077670636458"><ele>254.00000000000003</ele><time>2026-04-08T16:31:54Z</time></trkpt><trkpt lat="43.918919857116244" lon="12.136952229674083"><ele>254.0</ele><time>2026-04-08T16:31:58Z</time></trkpt><trkpt lat="43.91888285443039" lon="12.136846522351403"><ele>254.0</ele><time>2026-04-08T16:32:01Z</time></trkpt><trkpt lat="43.91888830758193" lon="12.136737192813776"><ele>254.0</ele><time>2026-04-08T16:32:09Z</time></trkpt><trkpt lat="43.91895713207554" lon="12.136709140688044"><ele>254.0</ele><time>2026-04-08T16:32:17Z</time></trkpt><trkpt lat="43.91901886486428" lon="12.136739522318459"><ele>254.0</ele><time>2026-04-08T16:32:30Z</time></trkpt><trkpt lat="43.919086636501696" lon="12.13673206191082"><ele>254.0</ele><time>2026-04-08T16:32:33Z</time></trkpt><trkpt lat="43.91911578928904" lon="12.136817376556163"><ele>254.0</ele><time>2026-04-08T16:32:36Z</time></trkpt><trkpt lat="43.91915593673168" lon="12.13689454255639"><ele>254.0</ele><time>2026-04-08T16:32:39Z</time></trkpt><trkpt lat="43.9192020197464" lon="12.13696240445585"><ele>256.0</ele><time>2026-04-08T16:32:41Z</time></trkpt><trkpt lat="43.91927672104254" lon="12.136994230861701"><ele>258.0</ele><time>2026-04-08T16:32:44Z</time></trkpt><trkpt lat="43.9193651311998" lon="12.136984414855378"><ele>260.0</ele><time>2026-04-08T16:32:47Z</time></trkpt><trkpt lat="43.919475982440325" lon="12.136940780839156"><ele>262.0</ele><time>2026-04-08T16:32:50Z</time></trkpt><trkpt lat="43.91954700532063" lon="12.136931512453732"><ele>264.0</ele><time>2026-04-08T16:32:52Z</time></trkpt><trkpt lat="43.91951924617649" lon="12.136834947405337"><ele>266.0</ele><time>2026-04-08T16:32:56Z</time></trkpt><trkpt lat="43.91949379000075" lon="12.136712454929839"><ele>266.0</ele><time>2026-04-08T16:32:59Z</time></trkpt><trkpt lat="43.91956069545999" lon="12.13665336632655"><ele>266.0</ele><time>2026-04-08T16:33:01Z</time></trkpt><trkpt lat="43.919608270140394" lon="12.136591787713764"><ele>266.0</ele><time>2026-04-08T16:33:03Z</time></trkpt><trkpt lat="43.919676964528165" lon="12.136545543868055"><ele>266.0</ele><time>2026-04-08T16:33:05Z</time></trkpt><trkpt lat="43.919772348513696" lon="12.136480398869805"><ele>266.0</ele><time>2026-04-08T16:33:07Z</time></trkpt><trkpt lat="43.919866461938135" lon="12.136450759858723"><ele>266.0</ele><time>2026-04-08T16:33:09Z</time></trkpt><trkpt lat="43.91994069691579" lon="12.136393378994658"><ele>265.5</ele><time>2026-04-08T16:33:12Z</time></trkpt><trkpt lat="43.920041613688895" lon="12.13636863462423"><ele>265.0</ele><time>2026-04-08T16:33:15Z</time></trkpt><trkpt lat="43.92012709261792" lon="12.136429081964952"><ele>264.5</ele><time>2026-04-08T16:33:18Z</time></trkpt><trkpt lat="43.92016357103894" lon="12.136503854400733"><ele>264.0</ele><time>2026-04-08T16:33:40Z</time></trkpt><trkpt lat="43.92018294593012" lon="12.13658838554372"><ele>263.5</ele><time>2026-04-08T16:33:50Z</time></trkpt><trkpt lat="43.920237356310906" lon="12.136522631665303"><ele>263.0</ele><time>2026-04-08T16:34:08Z</time></trkpt><trkpt lat="43.920173208350306" lon="12.136527531094858"><ele>263.0</ele><time>2026-04-08T16:34:27Z</time></trkpt><trkpt lat="43.920130213749715" lon="12.136436739438679"><ele>263.0</ele><time>2026-04-08T16:34:33Z</time></trkpt><trkpt lat="43.92001791460892" lon="12.136399469728174"><ele>263.0</ele><time>2026-04-08T16:34:36Z</time></trkpt><trkpt lat="43.91993954467331" lon="12.136455931580869"><ele>263.0</ele><time>2026-04-08T16:34:38Z</time></trkpt><trkpt lat="43.91982856104513" lon="12.13652135379286"><ele>263.0</ele><time>2026-04-08T16:34:41Z</time></trkpt><trkpt lat="43.91973746679729" lon="12.13654945604938"><ele>263.0</ele><time>2026-04-08T16:34:43Z</time></trkpt><trkpt lat="43.919833782283476" lon="12.136462088815762"><ele>263.0</ele><time>2026-04-08T16:34:51Z</time></trkpt><trkpt lat="43.91991651112634" lon="12.136419627478025"><ele>263.0</ele><time>2026-04-08T16:34:53Z</time></trkpt><trkpt lat="43.9199788029577" lon="12.136369971242756"><ele>263.0</ele><time>2026-04-08T16:34:56Z</time></trkpt><trkpt lat="43.92005471770844" lon="12.136337356818451"><ele>263.0</ele><time>2026-04-08T16:34:59Z</time></trkpt><trkpt lat="43.9201077187573" lon="12.136391838360451"><ele>263.0</ele><time>2026-04-08T16:35:01Z</time></trkpt><trkpt lat="43.920160050857554" lon="12.136445803273988"><ele>267.0</ele><time>2026-04-08T16:35:05Z</time></trkpt><trkpt lat="43.920186024335166" lon="12.136309115817607"><ele>271.0</ele><time>2026-04-08T16:35:29Z</time></trkpt><trkpt lat="43.92024417804909" lon="12.136209092309283"><ele>275.0</ele><time>2026-04-08T16:35:32Z</time></trkpt><trkpt lat="43.920285865794156" lon="12.136121570231312"><ele>279.0</ele><time>2026-04-08T16:35:35Z</time></trkpt><trkpt lat="43.920360357282725" lon="12.136046885209238"><ele>283.0</ele><time>2026-04-08T16:35:37Z</time></trkpt><trkpt lat="43.92045061972282" lon="12.13597291267223"><ele>283.0</ele><time>2026-04-08T16:35:39Z</time></trkpt><trkpt lat="43.92052471931242" lon="12.135852703605526"><ele>283.0</ele><time>2026-04-08T16:35:41Z</time></trkpt><trkpt lat="43.92060443546656" lon="12.13583006566697"><ele>283.0</ele><time>2026-04-08T16:35:43Z</time></trkpt><trkpt lat="43.92067842438759" lon="12.135793778609974"><ele>283.0</ele><time>2026-04-08T16:35:46Z</time></trkpt><trkpt lat="43.92074096551591" lon="12.135676491610283"><ele>283.0</ele><time>2026-04-08T16:35:48Z</time></trkpt><trkpt lat="43.920774762874906" lon="12.135551486706127"><ele>281.0</ele><time>2026-04-08T16:35:50Z</time></trkpt><trkpt lat="43.92074502558941" lon="12.135389496649756"><ele>279.0</ele><time>2026-04-08T16:35:52Z</time></trkpt><trkpt lat="43.920712031339704" lon="12.135220742369405"><ele>277.0</ele><time>2026-04-08T16:35:54Z</time></trkpt><trkpt lat="43.920667233690104" lon="12.135103588612234"><ele>275.0</ele><time>2026-04-08T16:35:55Z</time></trkpt><trkpt lat="43.920642292047475" lon="12.135010293991543"><ele>273.0</ele><time>2026-04-08T16:35:56Z</time></trkpt><trkpt lat="43.920595763115855" lon="12.134854554274648"><ele>272.5</ele><time>2026-04-08T16:35:58Z</time></trkpt><trkpt lat="43.92056895296271" lon="12.134758640976097"><ele>272.0</ele><time>2026-04-08T16:35:59Z</time></trkpt><trkpt lat="43.920544840803394" lon="12.134670064920549"><ele>271.5</ele><time>2026-04-08T16:36:00Z</time></trkpt><trkpt lat="43.920518386290595" lon="12.13458930832428"><ele>271.0</ele><time>2026-04-08T16:36:01Z</time></trkpt><trkpt lat="43.920485037722145" lon="12.1344272731171"><ele>270.5</ele><time>2026-04-08T16:36:03Z</time></trkpt><trkpt lat="43.92045219334758" lon="12.134288558117099"><ele>270.0</ele><time>2026-04-08T16:36:05Z</time></trkpt><trkpt lat="43.920434088762626" lon="12.134183110150664"><ele>269.6666666666667</ele><time>2026-04-08T16:36:07Z</time></trkpt><trkpt lat="43.92042149702721" lon="12.134051431549375"><ele>269.3333333333333</ele><time>2026-04-08T16:36:09Z</time></trkpt><trkpt lat="43.920442867578146" lon="12.133919326911087"><ele>269.0</ele><time>2026-04-08T16:36:11Z</time></trkpt><trkpt lat="43.92049432908809" lon="12.133821020450055"><ele>268.66666666666663</ele><time>2026-04-08T16:36:14Z</time></trkpt><trkpt lat="43.92054539777744" lon="12.133727418641987"><ele>268.3333333333333</ele><time>2026-04-08T16:36:17Z</time></trkpt><trkpt lat="43.92057759520854" lon="12.133642573727528"><ele>268.0</ele><time>2026-04-08T16:36:21Z</time></trkpt><trkpt lat="43.92058798286591" lon="12.133543826606516"><ele>268.0</ele><time>2026-04-08T16:36:23Z</time></trkpt><trkpt lat="43.92056427644469" lon="12.133446035088966"><ele>268.0</ele><time>2026-04-08T16:36:25Z</time></trkpt><trkpt lat="43.92049369607575" lon="12.133454119052182"><ele>268.0</ele><time>2026-04-08T16:36:26Z</time></trkpt><trkpt lat="43.920468607434714" lon="12.133358617181674"><ele>268.0</ele><time>2026-04-08T16:36:31Z</time></trkpt><trkpt lat="43.92051078799186" lon="12.133291475625683"><ele>268.0</ele><time>2026-04-08T16:36:33Z</time></trkpt><trkpt lat="43.92057481052151" lon="12.133179120384208"><ele>268.0</ele><time>2026-04-08T16:36:36Z</time></trkpt><trkpt lat="43.920619528758394" lon="12.133102074572417"><ele>270.8</ele><time>2026-04-08T16:36:38Z</time></trkpt><trkpt lat="43.92066723168028" lon="12.132967413727576"><ele>273.6</ele><time>2026-04-08T16:36:41Z</time></trkpt><trkpt lat="43.9206985784756" lon="12.132879908596395"><ele>276.4</ele><time>2026-04-08T16:36:43Z</time></trkpt><trkpt lat="43.92075714282776" lon="12.13279659119363"><ele>279.2</ele><time>2026-04-08T16:36:45Z</time></trkpt><trkpt lat="43.92083889601726" lon="12.132716828749246"><ele>282.0</ele><time>2026-04-08T16:36:47Z</time></trkpt><trkpt lat="43.92078509700998" lon="12.132615061313306"><ele>282.0</ele><time>2026-04-08T16:36:51Z</time></trkpt><trkpt lat="43.92077127769029" lon="12.132504767033865"><ele>282.0</ele><time>2026-04-08T16:36:54Z</time></trkpt><trkpt lat="43.92081322336836" lon="12.13243479442706"><ele>282.0</ele><time>2026-04-08T16:36:56Z</time></trkpt><trkpt lat="43.92085539563192" lon="12.13236412941947"><ele>282.0</ele><time>2026-04-08T16:36:58Z</time></trkpt><trkpt lat="43.92090740026666" lon="12.13230599107372"><ele>282.0</ele><time>2026-04-08T16:37:00Z</time></trkpt><trkpt lat="43.920884352690095" lon="12.132218742213297"><ele>282.0</ele><time>2026-04-08T16:37:02Z</time></trkpt><trkpt lat="43.9208235014124" lon="12.132151643988292"><ele>282.0</ele><time>2026-04-08T16:37:05Z</time></trkpt><trkpt lat="43.92084328514299" lon="12.132032440896205"><ele>284.3333333333333</ele><time>2026-04-08T16:37:07Z</time></trkpt><trkpt lat="43.92086725491582" lon="12.131919843462992"><ele>286.6666666666667</ele><time>2026-04-08T16:37:10Z</time></trkpt><trkpt lat="43.92088321453388" lon="12.131789469254393"><ele>289.0</ele><time>2026-04-08T16:37:13Z</time></trkpt><trkpt lat="43.92081326313895" lon="12.131786003926042"><ele>291.33333333333337</ele><time>2026-04-08T16:37:16Z</time></trkpt><trkpt lat="43.920748893046834" lon="12.131794113953815"><ele>293.6666666666667</ele><time>2026-04-08T16:37:18Z</time></trkpt><trkpt lat="43.920692696019614" lon="12.131852543511345"><ele>296.0</ele><time>2026-04-08T16:37:20Z</time></trkpt><trkpt lat="43.92060922780178" lon="12.131877968747888"><ele>296.0</ele><time>2026-04-08T16:37:24Z</time></trkpt><trkpt lat="43.92064454205825" lon="12.1317836284845"><ele>296.0</ele><time>2026-04-08T16:37:28Z</time></trkpt><trkpt lat="43.92070439587661" lon="12.131715846487255"><ele>296.0</ele><time>2026-04-08T16:37:30Z</time></trkpt><trkpt lat="43.920743894185726" lon="12.131644196148374"><ele>296.0</ele><time>2026-04-08T16:37:32Z</time></trkpt><trkpt lat="43.92078515727519" lon="12.13156786374296"><ele>296.0</ele><time>2026-04-08T16:37:34Z</time></trkpt><trkpt lat="43.92084842920047" lon="12.131528878638875"><ele>296.0</ele><time>2026-04-08T16:37:39Z</time></trkpt><trkpt lat="43.920910913893934" lon="12.131460379338275"><ele>296.0</ele><time>2026-04-08T16:37:43Z</time></trkpt><trkpt lat="43.920968621270426" lon="12.131378958977196"><ele>301.0</ele><time>2026-04-08T16:37:46Z</time></trkpt><trkpt lat="43.92100627011915" lon="12.131304676437303"><ele>306.0</ele><time>2026-04-08T16:37:49Z</time></trkpt><trkpt lat="43.921057984984884" lon="12.13123275518522"><ele>311.0</ele><time>2026-04-08T16:37:54Z</time></trkpt><trkpt lat="43.92112312288556" lon="12.131182343374082"><ele>316.0</ele><time>2026-04-08T16:37:58Z</time></trkpt><trkpt lat="43.92117836278298" lon="12.131129638425268"><ele>321.0</ele><time>2026-04-08T16:38:01Z</time></trkpt><trkpt lat="43.921238540854525" lon="12.131068883858838"><ele>326.0</ele><time>2026-04-08T16:38:04Z</time></trkpt><trkpt lat="43.921261991041646" lon="12.13097458807104"><ele>331.0</ele><time>2026-04-08T16:38:07Z</time></trkpt><trkpt lat="43.92130563862557" lon="12.130883535413037"><ele>331.0</ele><time>2026-04-08T16:38:11Z</time></trkpt><trkpt lat="43.92136595519163" lon="12.13085351779256"><ele>331.0</ele><time>2026-04-08T16:38:23Z</time></trkpt><trkpt lat="43.92142537239615" lon="12.13076892154289"><ele>331.0</ele><time>2026-04-08T16:38:30Z</time></trkpt><trkpt lat="43.921500947751596" lon="12.130704649568443"><ele>331.0</ele><time>2026-04-08T16:38:33Z</time></trkpt><trkpt lat="43.92155932398897" lon="12.130652282381215"><ele>331.0</ele><time>2026-04-08T16:38:37Z</time></trkpt><trkpt lat="43.92161512293871" lon="12.13056198456637"><ele>331.0</ele><time>2026-04-08T16:38:41Z</time></trkpt><trkpt lat="43.92167487879635" lon="12.130531203668736"><ele>330.7142857142857</ele><time>2026-04-08T16:39:24Z</time></trkpt><trkpt lat="43.92172068409968" lon="12.130452911762836"><ele>330.42857142857144</ele><time>2026-04-08T16:39:30Z</time></trkpt><trkpt lat="43.92177862420523" lon="12.130388572250265"><ele>330.1428571428571</ele><time>2026-04-08T16:39:36Z</time></trkpt><trkpt lat="43.921859678300756" lon="12.130352619569708"><ele>329.8571428571429</ele><time>2026-04-08T16:39:40Z</time></trkpt><trkpt lat="43.92192448263906" lon="12.1303224836925"><ele>329.57142857142856</ele><time>2026-04-08T16:39:43Z</time></trkpt><trkpt lat="43.9219877296527" lon="12.130271373233441"><ele>329.2857142857143</ele><time>2026-04-08T16:39:46Z</time></trkpt><trkpt lat="43.92204544761757" lon="12.130203329861546"><ele>329.0</ele><time>2026-04-08T16:39:51Z</time></trkpt><trkpt lat="43.922122094843104" lon="12.130165678373103"><ele>334.33333333333337</ele><time>2026-04-08T16:40:00Z</time></trkpt><trkpt lat="43.92220264655194" lon="12.130130608984352"><ele>339.6666666666667</ele><time>2026-04-08T16:40:07Z</time></trkpt><trkpt lat="43.922276857876504" lon="12.130130633604772"><ele>345.0</ele><time>2026-04-08T16:40:13Z</time></trkpt><trkpt lat="43.922358447332044" lon="12.130145396584814"><ele>350.3333333333333</ele><time>2026-04-08T16:40:16Z</time></trkpt><trkpt lat="43.92242340022018" lon="12.130156775146196"><ele>355.66666666666663</ele><time>2026-04-08T16:40:19Z</time></trkpt><trkpt lat="43.9224978620156" lon="12.130155628215286"><ele>361.0</ele><time>2026-04-08T16:40:22Z</time></trkpt><trkpt lat="43.922572435171986" lon="12.1301469070231"><ele>362.14285714285717</ele><time>2026-04-08T16:40:25Z</time></trkpt><trkpt lat="43.92265927038161" lon="12.130122998709636"><ele>363.2857142857143</ele><time>2026-04-08T16:40:30Z</time></trkpt><trkpt lat="43.92271862086429" lon="12.130085968714283"><ele>364.42857142857144</ele><time>2026-04-08T16:40:34Z</time></trkpt><trkpt lat="43.9227954587385" lon="12.13005619184689"><ele>365.57142857142856</ele><time>2026-04-08T16:40:37Z</time></trkpt><trkpt lat="43.9228592927115" lon="12.130052011931701"><ele>366.71428571428567</ele><time>2026-04-08T16:40:43Z</time></trkpt><trkpt lat="43.92291913063372" lon="12.130015118376294"><ele>367.85714285714283</ele><time>2026-04-08T16:40:45Z</time></trkpt><trkpt lat="43.92297874320678" lon="12.129983367719511"><ele>369.0</ele><time>2026-04-08T16:40:47Z</time></trkpt><trkpt lat="43.9230561241708" lon="12.129940602796143"><ele>369.0</ele><time>2026-04-08T16:40:50Z</time></trkpt><trkpt lat="43.9229894156655" lon="12.12999760068649"><ele>369.0</ele><time>2026-04-08T16:42:01Z</time></trkpt><trkpt lat="43.92290647719418" lon="12.13002676596993"><ele>369.0</ele><time>2026-04-08T16:42:05Z</time></trkpt><trkpt lat="43.922837791890856" lon="12.130072501515636"><ele>369.0</ele><time>2026-04-08T16:42:07Z</time></trkpt><trkpt lat="43.92273765140862" lon="12.130116223655984"><ele>369.0</ele><time>2026-04-08T16:42:09Z</time></trkpt><trkpt lat="43.922667814774506" lon="12.130128025066254"><ele>369.0</ele><time>2026-04-08T16:42:13Z</time></trkpt><trkpt lat="43.922651351083914" lon="12.130028455249692"><ele>369.0</ele><time>2026-04-08T16:42:26Z</time></trkpt><trkpt lat="43.92262418582353" lon="12.129929617806107"><ele>369.0</ele><time>2026-04-08T16:42:33Z</time></trkpt><trkpt lat="43.922646124082654" lon="12.129837221450884"><ele>369.0</ele><time>2026-04-08T16:42:37Z</time></trkpt><trkpt lat="43.92268872883053" lon="12.129765949759186"><ele>369.0</ele><time>2026-04-08T16:42:43Z</time></trkpt><trkpt lat="43.92274330044744" lon="12.129703806660592"><ele>369.0</ele><time>2026-04-08T16:42:57Z</time></trkpt><trkpt lat="43.922809073578925" lon="12.129651760163135"><ele>369.0</ele><time>2026-04-08T16:43:46Z</time></trkpt><trkpt lat="43.922828416246794" lon="12.129566208821535"><ele>369.0</ele><time>2026-04-08T16:44:15.999Z</time></trkpt><trkpt lat="43.922859380845026" lon="12.129480665678031"><ele>369.42857142857144</ele><time>2026-04-08T16:44:29Z</time></trkpt><trkpt lat="43.922893333602126" lon="12.129395394699282"><ele>369.85714285714283</ele><time>2026-04-08T16:44:38Z</time></trkpt><trkpt lat="43.92295735283503" lon="12.129372656574844"><ele>370.28571428571433</ele><time>2026-04-08T16:44:50Z</time></trkpt><trkpt lat="43.92304035211266" lon="12.12931171478593"><ele>370.7142857142857</ele><time>2026-04-08T16:45:36Z</time></trkpt><trkpt lat="43.923103306168436" lon="12.129347718730555"><ele>371.14285714285717</ele><time>2026-04-08T16:45:56Z</time></trkpt><trkpt lat="43.92314926332797" lon="12.129412932215436"><ele>371.5714285714286</ele><time>2026-04-08T16:46:05Z</time></trkpt><trkpt lat="43.92320998474451" lon="12.129440057247995"><ele>372.0</ele><time>2026-04-08T16:46:27Z</time></trkpt><trkpt lat="43.923276819597376" lon="12.129417689462523"><ele>372.00000000000006</ele><time>2026-04-08T16:46:32Z</time></trkpt><trkpt lat="43.92329455944717" lon="12.129331869888754"><ele>372.0</ele><time>2026-04-08T16:46:56Z</time></trkpt><trkpt lat="43.92339228657795" lon="12.12936444349411"><ele>372.0</ele><time>2026-04-08T16:47:51Z</time></trkpt><trkpt lat="43.9233892304058" lon="12.129456449412944"><ele>372.0</ele><time>2026-04-08T16:48:13Z</time></trkpt><trkpt lat="43.9234537175079" lon="12.129485751738763"><ele>372.0</ele><time>2026-04-08T16:48:20Z</time></trkpt><trkpt lat="43.92351215242299" lon="12.129521125368651"><ele>372.00000000000006</ele><time>2026-04-08T16:48:27Z</time></trkpt><trkpt lat="43.92353538209385" lon="12.129615425943332"><ele>372.0</ele><time>2026-04-08T16:48:46Z</time></trkpt><trkpt lat="43.92361999754261" lon="12.129644555466143"><ele>373.00000000000006</ele><time>2026-04-08T16:49:15Z</time></trkpt><trkpt lat="43.92368132799638" lon="12.129612087194209"><ele>374.0</ele><time>2026-04-08T16:49:18Z</time></trkpt><trkpt lat="43.92375780833998" lon="12.12961070817142"><ele>375.0</ele><time>2026-04-08T16:49:21Z</time></trkpt><trkpt lat="43.92381709709928" lon="12.12957936806797"><ele>376.0</ele><time>2026-04-08T16:49:23Z</time></trkpt><trkpt lat="43.923902544122726" lon="12.129534983394537"><ele>377.0</ele><time>2026-04-08T16:49:26Z</time></trkpt><trkpt lat="43.923961889789545" lon="12.12947377555461"><ele>378.00000000000006</ele><time>2026-04-08T16:49:28Z</time></trkpt><trkpt lat="43.924029990995045" lon="12.129448218968484"><ele>379.0</ele><time>2026-04-08T16:49:30Z</time></trkpt><trkpt lat="43.92408675030297" lon="12.129405007635333"><ele>379.0</ele><time>2026-04-08T16:49:32Z</time></trkpt><trkpt lat="43.92413092997812" lon="12.129338886188178"><ele>379.0</ele><time>2026-04-08T16:49:34Z</time></trkpt><trkpt lat="43.924209728079106" lon="12.12928915482699"><ele>379.0</ele><time>2026-04-08T16:49:37Z</time></trkpt><trkpt lat="43.92427303651785" lon="12.129216420912325"><ele>379.0</ele><time>2026-04-08T16:49:40Z</time></trkpt><trkpt lat="43.924334473580814" lon="12.129167707809218"><ele>379.0</ele><time>2026-04-08T16:49:42Z</time></trkpt><trkpt lat="43.92439615283074" lon="12.129101850586906"><ele>379.0</ele><time>2026-04-08T16:49:44Z</time></trkpt><trkpt lat="43.92446810077676" lon="12.129030828035969"><ele>380.5714285714286</ele><time>2026-04-08T16:49:47Z</time></trkpt><trkpt lat="43.924557316305126" lon="12.129008784767997"><ele>382.14285714285717</ele><time>2026-04-08T16:49:50Z</time></trkpt><trkpt lat="43.92462056492255" lon="12.128994487546588"><ele>383.7142857142857</ele><time>2026-04-08T16:49:53Z</time></trkpt><trkpt lat="43.924687072449906" lon="12.128998003430569"><ele>385.28571428571433</ele><time>2026-04-08T16:49:57Z</time></trkpt><trkpt lat="43.92474998718355" lon="12.128969244485578"><ele>386.85714285714283</ele><time>2026-04-08T16:49:59Z</time></trkpt><trkpt lat="43.924825662372946" lon="12.12895689787358"><ele>388.42857142857144</ele><time>2026-04-08T16:50:01Z</time></trkpt><trkpt lat="43.9248915966565" lon="12.128903860883147"><ele>390.0</ele><time>2026-04-08T16:50:03Z</time></trkpt><trkpt lat="43.92498176855943" lon="12.128855338237209"><ele>390.0</ele><time>2026-04-08T16:50:07Z</time></trkpt><trkpt lat="43.92504732009823" lon="12.128848494342035"><ele>390.0</ele><time>2026-04-08T16:50:09Z</time></trkpt><trkpt lat="43.92511202441716" lon="12.128802014265593"><ele>390.0</ele><time>2026-04-08T16:50:11Z</time></trkpt><trkpt lat="43.925179678006835" lon="12.128733879216767"><ele>390.0</ele><time>2026-04-08T16:50:13Z</time></trkpt><trkpt lat="43.925227275694176" lon="12.128620669576287"><ele>390.0</ele><time>2026-04-08T16:50:15Z</time></trkpt><trkpt lat="43.92525629982044" lon="12.128501344379815"><ele>390.0</ele><time>2026-04-08T16:50:17Z</time></trkpt><trkpt lat="43.92527727919595" lon="12.128397204914394"><ele>392.7142857142857</ele><time>2026-04-08T16:50:19Z</time></trkpt><trkpt lat="43.9252833984006" lon="12.12830062636401"><ele>395.42857142857144</ele><time>2026-04-08T16:50:26Z</time></trkpt><trkpt lat="43.92531354830363" lon="12.128189565669429"><ele>398.1428571428571</ele><time>2026-04-08T16:50:31Z</time></trkpt><trkpt lat="43.92537734288315" lon="12.128215968568997"><ele>400.8571428571429</ele><time>2026-04-08T16:50:37Z</time></trkpt><trkpt lat="43.92541826755693" lon="12.128288427532189"><ele>403.5714285714286</ele><time>2026-04-08T16:50:39Z</time></trkpt><trkpt lat="43.92547208145535" lon="12.128346477075153"><ele>406.2857142857143</ele><time>2026-04-08T16:50:41Z</time></trkpt><trkpt lat="43.92554860910819" lon="12.128340894695679"><ele>409.0</ele><time>2026-04-08T16:50:43Z</time></trkpt><trkpt lat="43.92562742353347" lon="12.128375097393386"><ele>409.00000000000006</ele><time>2026-04-08T16:50:46Z</time></trkpt><trkpt lat="43.92570131096317" lon="12.128393567729118"><ele>409.0</ele><time>2026-04-08T16:50:48Z</time></trkpt><trkpt lat="43.92578639910925" lon="12.128359559993777"><ele>409.0</ele><time>2026-04-08T16:50:50Z</time></trkpt><trkpt lat="43.92589158544628" lon="12.128274260656292"><ele>409.0</ele><time>2026-04-08T16:50:52Z</time></trkpt><trkpt lat="43.925945457145815" lon="12.128226311200944"><ele>409.00000000000006</ele><time>2026-04-08T16:50:53Z</time></trkpt><trkpt lat="43.92603627492374" lon="12.12818897433838"><ele>409.0</ele><time>2026-04-08T16:50:55Z</time></trkpt><trkpt lat="43.925963139355375" lon="12.128229102739576"><ele>411.33333333333337</ele><time>2026-04-08T16:51:01Z</time></trkpt><trkpt lat="43.925902512342894" lon="12.12819848888878"><ele>413.6666666666667</ele><time>2026-04-08T16:51:04Z</time></trkpt><trkpt lat="43.92587230912321" lon="12.12809919160607"><ele>416.0</ele><time>2026-04-08T16:51:08Z</time></trkpt><trkpt lat="43.925850654884506" lon="12.127984907577362"><ele>418.33333333333337</ele><time>2026-04-08T16:51:12Z</time></trkpt><trkpt lat="43.925807705537856" lon="12.12787450146596"><ele>420.6666666666667</ele><time>2026-04-08T16:51:16Z</time></trkpt><trkpt lat="43.92584039122878" lon="12.127782537502457"><ele>423.0</ele><time>2026-04-08T16:51:19Z</time></trkpt><trkpt lat="43.92582900882918" lon="12.127663581837846"><ele>423.0</ele><time>2026-04-08T16:51:21Z</time></trkpt><trkpt lat="43.92582530800086" lon="12.127542908565253"><ele>423.0</ele><time>2026-04-08T16:51:24Z</time></trkpt><trkpt lat="43.92582100056729" lon="12.127408488378233"><ele>423.0</ele><time>2026-04-08T16:51:26Z</time></trkpt><trkpt lat="43.92582579579346" lon="12.12731213729838"><ele>423.0</ele><time>2026-04-08T16:51:28Z</time></trkpt><trkpt lat="43.925843949700024" lon="12.127192392456553"><ele>423.0</ele><time>2026-04-08T16:51:30Z</time></trkpt><trkpt lat="43.925854941915446" lon="12.127084655889883"><ele>423.0</ele><time>2026-04-08T16:51:32Z</time></trkpt><trkpt lat="43.92587631877606" lon="12.12695915925937"><ele>426.85714285714283</ele><time>2026-04-08T16:51:35Z</time></trkpt><trkpt lat="43.925923974166174" lon="12.12686171997848"><ele>430.7142857142858</ele><time>2026-04-08T16:51:37Z</time></trkpt><trkpt lat="43.92595816966895" lon="12.126784385495531"><ele>434.5714285714286</ele><time>2026-04-08T16:51:40.001Z</time></trkpt><trkpt lat="43.926008773398735" lon="12.126705352853524"><ele>438.42857142857144</ele><time>2026-04-08T16:51:44.001Z</time></trkpt><trkpt lat="43.92607114167373" lon="12.126648652592143"><ele>442.28571428571433</ele><time>2026-04-08T16:51:52.001Z</time></trkpt><trkpt lat="43.92612324556144" lon="12.12658313834456"><ele>446.1428571428572</ele><time>2026-04-08T16:51:58.001Z</time></trkpt><trkpt lat="43.926193250973824" lon="12.126594971661927"><ele>450.00000000000006</ele><time>2026-04-08T16:52:03.001Z</time></trkpt><trkpt lat="43.926249818819734" lon="12.126549929791835"><ele>450.00000000000006</ele><time>2026-04-08T16:52:07.001Z</time></trkpt><trkpt lat="43.92631553158653" lon="12.126550054137487"><ele>450.0</ele><time>2026-04-08T16:52:11.001Z</time></trkpt><trkpt lat="43.92637413834205" lon="12.126478554147623"><ele>450.00000000000006</ele><time>2026-04-08T16:52:16.001Z</time></trkpt><trkpt lat="43.92637226257845" lon="12.12637789711589"><ele>450.00000000000006</ele><time>2026-04-08T16:52:27.001Z</time></trkpt><trkpt lat="43.92638673347636" lon="12.126277600092282"><ele>450.0</ele><time>2026-04-08T16:52:45.001Z</time></trkpt><trkpt lat="43.92641705959492" lon="12.12618263802186"><ele>450.00000000000006</ele><time>2026-04-08T16:52:50.001Z</time></trkpt><trkpt lat="43.92644264729162" lon="12.126093556689806"><ele>450.00000000000006</ele><time>2026-04-08T16:53:00.001Z</time></trkpt><trkpt lat="43.92650451094126" lon="12.126158584380754"><ele>450.00000000000006</ele><time>2026-04-08T17:02:31Z</time></trkpt><trkpt lat="43.92657667365831" lon="12.126162057763223"><ele>450.0</ele><time>2026-04-08T17:02:34Z</time></trkpt><trkpt lat="43.926643601474105" lon="12.126145683157098"><ele>450.00000000000006</ele><time>2026-04-08T17:02:38Z</time></trkpt><trkpt lat="43.926720243912236" lon="12.126119940601853"><ele>450.00000000000006</ele><time>2026-04-08T17:02:52Z</time></trkpt><trkpt lat="43.926807126485826" lon="12.126085927984548"><ele>450.0</ele><time>2026-04-08T17:02:55Z</time></trkpt><trkpt lat="43.92686880336636" lon="12.126060489081757"><ele>450.00000000000006</ele><time>2026-04-08T17:02:57Z</time></trkpt><trkpt lat="43.926932943157844" lon="12.12605364592391"><ele>450.00000000000006</ele><time>2026-04-08T17:03:00Z</time></trkpt><trkpt lat="43.927003034438215" lon="12.126038951843844"><ele>449.1666666666667</ele><time>2026-04-08T17:03:02Z</time></trkpt><trkpt lat="43.9270712455685" lon="12.126047467454379"><ele>448.33333333333337</ele><time>2026-04-08T17:03:05Z</time></trkpt><trkpt lat="43.927146614838435" lon="12.126081607918598"><ele>447.5</ele><time>2026-04-08T17:03:08Z</time></trkpt><trkpt lat="43.92722681104459" lon="12.126098128250007"><ele>446.6666666666667</ele><time>2026-04-08T17:03:11Z</time></trkpt><trkpt lat="43.92733102272002" lon="12.12610514385492"><ele>445.83333333333337</ele><time>2026-04-08T17:03:15Z</time></trkpt><trkpt lat="43.927406871387994" lon="12.12608286777819"><ele>445.0</ele><time>2026-04-08T17:03:19Z</time></trkpt><trkpt lat="43.927467997367884" lon="12.126061905167346"><ele>445.00000000000006</ele><time>2026-04-08T17:03:22Z</time></trkpt><trkpt lat="43.9275447166927" lon="12.126034154705469"><ele>445.0</ele><time>2026-04-08T17:03:29Z</time></trkpt><trkpt lat="43.92760054919335" lon="12.125992773750202"><ele>445.0</ele><time>2026-04-08T17:03:36Z</time></trkpt><trkpt lat="43.92766987489979" lon="12.125980860066857"><ele>445.0</ele><time>2026-04-08T17:03:44Z</time></trkpt><trkpt lat="43.9277360934727" lon="12.12599430383068"><ele>445.00000000000006</ele><time>2026-04-08T17:03:51Z</time></trkpt><trkpt lat="43.927838491659756" lon="12.125996690075686"><ele>445.0</ele><time>2026-04-08T17:03:56Z</time></trkpt><trkpt lat="43.92790083327891" lon="12.125955847679162"><ele>443.83333333333337</ele><time>2026-04-08T17:04:19.001Z</time></trkpt><trkpt lat="43.927959966626524" lon="12.125900410511827"><ele>442.6666666666667</ele><time>2026-04-08T17:04:21.001Z</time></trkpt><trkpt lat="43.92802930995833" lon="12.125844365576155"><ele>441.5</ele><time>2026-04-08T17:04:23.001Z</time></trkpt><trkpt lat="43.92809788042931" lon="12.125797308651284"><ele>440.33333333333337</ele><time>2026-04-08T17:04:25.001Z</time></trkpt><trkpt lat="43.92817022785012" lon="12.125718946170455"><ele>439.1666666666667</ele><time>2026-04-08T17:04:27.001Z</time></trkpt><trkpt lat="43.92825739913387" lon="12.12567015017963"><ele>438.0</ele><time>2026-04-08T17:04:29.001Z</time></trkpt><trkpt lat="43.92835813485982" lon="12.125638981289864"><ele>439.0</ele><time>2026-04-08T17:04:31.001Z</time></trkpt><trkpt lat="43.92844563617446" lon="12.125601049567456"><ele>439.99999999999994</ele><time>2026-04-08T17:04:33.001Z</time></trkpt><trkpt lat="43.9285663835347" lon="12.125577280218891"><ele>440.99999999999994</ele><time>2026-04-08T17:04:35.001Z</time></trkpt><trkpt lat="43.928625808329464" lon="12.125545723336405"><ele>442.0</ele><time>2026-04-08T17:04:36.001Z</time></trkpt><trkpt lat="43.928716856173104" lon="12.125563050831282"><ele>443.0</ele><time>2026-04-08T17:04:38.001Z</time></trkpt><trkpt lat="43.92880095206567" lon="12.125541812979101"><ele>442.99999999999994</ele><time>2026-04-08T17:04:40.001Z</time></trkpt><trkpt lat="43.92891410800027" lon="12.12551323621396"><ele>443.0</ele><time>2026-04-08T17:04:42.001Z</time></trkpt><trkpt lat="43.92898171859858" lon="12.125496161608952"><ele>443.0</ele><time>2026-04-08T17:04:43.001Z</time></trkpt><trkpt lat="43.929049447782134" lon="12.125478967884643"><ele>443.0</ele><time>2026-04-08T17:04:44.001Z</time></trkpt><trkpt lat="43.92911871764028" lon="12.125460343967703"><ele>442.99999999999994</ele><time>2026-04-08T17:04:45Z</time></trkpt><trkpt lat="43.929209616821396" lon="12.125434374795146"><ele>443.0</ele><time>2026-04-08T17:04:46Z</time></trkpt><trkpt lat="43.92929959022747" lon="12.125406804612577"><ele>446.59999999999997</ele><time>2026-04-08T17:04:47Z</time></trkpt><trkpt lat="43.92939759170623" lon="12.125378983514853"><ele>450.19999999999993</ele><time>2026-04-08T17:04:48Z</time></trkpt><trkpt lat="43.929484768278" lon="12.125359279364973"><ele>453.8</ele><time>2026-04-08T17:04:49Z</time></trkpt><trkpt lat="43.929598444833495" lon="12.125335197587157"><ele>457.4</ele><time>2026-04-08T17:04:51Z</time></trkpt><trkpt lat="43.929688793383576" lon="12.125307412462078"><ele>461.0</ele><time>2026-04-08T17:04:53Z</time></trkpt><trkpt lat="43.92978852603671" lon="12.125306141920307"><ele>461.0</ele><time>2026-04-08T17:04:55Z</time></trkpt><trkpt lat="43.9298730940992" lon="12.125245229036267"><ele>461.0</ele><time>2026-04-08T17:04:57Z</time></trkpt><trkpt lat="43.929948555248785" lon="12.125219756031987"><ele>461.0</ele><time>2026-04-08T17:04:59Z</time></trkpt><trkpt lat="43.930023833453824" lon="12.125190891588733"><ele>461.0</ele><time>2026-04-08T17:05:01Z</time></trkpt><trkpt lat="43.93012143597967" lon="12.12515346718205"><ele>461.0</ele><time>2026-04-08T17:05:03Z</time></trkpt><trkpt lat="43.930240691282485" lon="12.125106298691527"><ele>462.99999999999994</ele><time>2026-04-08T17:05:05Z</time></trkpt><trkpt lat="43.93031331540696" lon="12.125077277516123"><ele>465.0</ele><time>2026-04-08T17:05:06Z</time></trkpt><trkpt lat="43.93039870469655" lon="12.125043155280675"><ele>467.0</ele><time>2026-04-08T17:05:07Z</time></trkpt><trkpt lat="43.930483208935385" lon="12.12501088158638"><ele>469.0</ele><time>2026-04-08T17:05:08Z</time></trkpt><trkpt lat="43.93056156988467" lon="12.124981744407409"><ele>470.99999999999994</ele><time>2026-04-08T17:05:09Z</time></trkpt><trkpt lat="43.93063231775557" lon="12.124958577971208"><ele>473.0</ele><time>2026-04-08T17:05:10Z</time></trkpt><trkpt lat="43.930705193733935" lon="12.124947593046441"><ele>472.99999999999994</ele><time>2026-04-08T17:05:11Z</time></trkpt><trkpt lat="43.93076740538715" lon="12.12496314123692"><ele>473.0</ele><time>2026-04-08T17:05:12Z</time></trkpt><trkpt lat="43.93083544868287" lon="12.1249864703838"><ele>473.0</ele><time>2026-04-08T17:05:13Z</time></trkpt><trkpt lat="43.930910233816206" lon="12.125024633100644"><ele>473.0</ele><time>2026-04-08T17:05:14Z</time></trkpt><trkpt lat="43.93101726379461" lon="12.125036806624523"><ele>472.99999999999994</ele><time>2026-04-08T17:05:16Z</time></trkpt><trkpt lat="43.93106412629733" lon="12.124965151470855"><ele>473.0</ele><time>2026-04-08T17:05:17Z</time></trkpt><trkpt lat="43.93112603764697" lon="12.12483035814736"><ele>473.59999999999997</ele><time>2026-04-08T17:05:19Z</time></trkpt><trkpt lat="43.93117800886518" lon="12.124700427190419"><ele>474.19999999999993</ele><time>2026-04-08T17:05:21Z</time></trkpt><trkpt lat="43.93120511208343" lon="12.124569180552674"><ele>474.8</ele><time>2026-04-08T17:05:23Z</time></trkpt><trkpt lat="43.93109636864201" lon="12.124524663320624"><ele>475.4</ele><time>2026-04-08T17:05:25Z</time></trkpt><trkpt lat="43.931048204350105" lon="12.124633159033369"><ele>476.0</ele><time>2026-04-08T17:05:26Z</time></trkpt><trkpt lat="43.931086442777705" lon="12.124558793366203"><ele>476.0</ele><time>2026-04-08T17:05:42.001Z</time></trkpt><trkpt lat="43.931110896485606" lon="12.124477279907806"><ele>476.0</ele><time>2026-04-08T17:05:44.001Z</time></trkpt><trkpt lat="43.93121802396753" lon="12.12445654746848"><ele>476.0</ele><time>2026-04-08T17:05:46.001Z</time></trkpt><trkpt lat="43.93130119746594" lon="12.124454690065411"><ele>476.0</ele><time>2026-04-08T17:05:48.001Z</time></trkpt><trkpt lat="43.93139758485636" lon="12.124444819098011"><ele>476.0</ele><time>2026-04-08T17:05:50.001Z</time></trkpt><trkpt lat="43.93147170413495" lon="12.124352684197358"><ele>476.0</ele><time>2026-04-08T17:05:52.001Z</time></trkpt><trkpt lat="43.93146909839344" lon="12.12422363344387"><ele>476.0</ele><time>2026-04-08T17:05:54.001Z</time></trkpt><trkpt lat="43.93140158223222" lon="12.124086133663047"><ele>476.0</ele><time>2026-04-08T17:05:56.001Z</time></trkpt><trkpt lat="43.931338974868865" lon="12.124039425360959"><ele>476.0</ele><time>2026-04-08T17:05:57.001Z</time></trkpt><trkpt lat="43.931250188908784" lon="12.123945775182975"><ele>476.0</ele><time>2026-04-08T17:05:59.001Z</time></trkpt><trkpt lat="43.931162565984195" lon="12.123838381524799"><ele>478.3333333333333</ele><time>2026-04-08T17:06:01.001Z</time></trkpt><trkpt lat="43.93111457127403" lon="12.123768832087626"><ele>480.66666666666663</ele><time>2026-04-08T17:06:02.001Z</time></trkpt><trkpt lat="43.93107365188537" lon="12.123695316746593"><ele>483.0</ele><time>2026-04-08T17:06:03.001Z</time></trkpt><trkpt lat="43.93102804565007" lon="12.123629164654334"><ele>485.33333333333337</ele><time>2026-04-08T17:06:04.001Z</time></trkpt><trkpt lat="43.93092339039546" lon="12.123536495846905"><ele>487.6666666666667</ele><time>2026-04-08T17:06:06.001Z</time></trkpt><trkpt lat="43.93085171551307" lon="12.123433343279759"><ele>490.0</ele><time>2026-04-08T17:06:08.001Z</time></trkpt><trkpt lat="43.93084059929503" lon="12.123296508302072"><ele>490.33333333333337</ele><time>2026-04-08T17:06:10.001Z</time></trkpt><trkpt lat="43.930764269404605" lon="12.12325304655719"><ele>490.6666666666667</ele><time>2026-04-08T17:06:12.001Z</time></trkpt><trkpt lat="43.93067086219416" lon="12.123309515760017"><ele>491.0</ele><time>2026-04-08T17:06:14.001Z</time></trkpt><trkpt lat="43.93058712660144" lon="12.123372580267084"><ele>491.33333333333337</ele><time>2026-04-08T17:06:16.001Z</time></trkpt><trkpt lat="43.930533813565695" lon="12.123469512990457"><ele>491.6666666666667</ele><time>2026-04-08T17:06:18.001Z</time></trkpt><trkpt lat="43.93052094484915" lon="12.123567436178591"><ele>492.0</ele><time>2026-04-08T17:06:20.001Z</time></trkpt><trkpt lat="43.93049295424259" lon="12.123676657661473"><ele>492.0</ele><time>2026-04-08T17:06:22.001Z</time></trkpt><trkpt lat="43.930468316527204" lon="12.123804030049648"><ele>492.0</ele><time>2026-04-08T17:06:24.001Z</time></trkpt><trkpt lat="43.93049378200491" lon="12.123908095309153"><ele>492.0</ele><time>2026-04-08T17:06:26.001Z</time></trkpt><trkpt lat="43.93055514314772" lon="12.12395710261964"><ele>492.0</ele><time>2026-04-08T17:06:28.001Z</time></trkpt><trkpt lat="43.93063635151471" lon="12.123938838226612"><ele>492.0</ele><time>2026-04-08T17:06:30.001Z</time></trkpt><trkpt lat="43.930705166868506" lon="12.123894120263554"><ele>492.0</ele><time>2026-04-08T17:06:32.001Z</time></trkpt><trkpt lat="43.93078703593682" lon="12.123832226970684"><ele>492.0</ele><time>2026-04-08T17:06:34.001Z</time></trkpt><trkpt lat="43.930858091898415" lon="12.123734608307517"><ele>492.00000000000006</ele><time>2026-04-08T17:06:37.001Z</time></trkpt><trkpt lat="43.930921372449326" lon="12.123630974783321"><ele>492.00000000000006</ele><time>2026-04-08T17:06:39.001Z</time></trkpt><trkpt lat="43.93100644768174" lon="12.123534632157973"><ele>492.0</ele><time>2026-04-08T17:06:41.001Z</time></trkpt><trkpt lat="43.93108714307821" lon="12.123412126261645"><ele>492.0</ele><time>2026-04-08T17:06:43.001Z</time></trkpt><trkpt lat="43.93115799396757" lon="12.123302289032909"><ele>491.6</ele><time>2026-04-08T17:06:45.001Z</time></trkpt><trkpt lat="43.93130360930033" lon="12.123310447150079"><ele>491.20000000000005</ele><time>2026-04-08T17:06:47.001Z</time></trkpt><trkpt lat="43.931376849687105" lon="12.123308918446767"><ele>490.8</ele><time>2026-04-08T17:06:48.001Z</time></trkpt><trkpt lat="43.931440301110904" lon="12.12330007725513"><ele>490.4</ele><time>2026-04-08T17:06:49.001Z</time></trkpt><trkpt lat="43.93150195201839" lon="12.123267885816299"><ele>490.0</ele><time>2026-04-08T17:06:50.001Z</time></trkpt><trkpt lat="43.931609996799594" lon="12.12319502567003"><ele>492.50000000000006</ele><time>2026-04-08T17:06:52.001Z</time></trkpt><trkpt lat="43.93169126183772" lon="12.123172366834066"><ele>495.0</ele><time>2026-04-08T17:06:54.001Z</time></trkpt><trkpt lat="43.93176022502958" lon="12.123122905408248"><ele>497.5</ele><time>2026-04-08T17:06:56.001Z</time></trkpt><trkpt lat="43.93181194279526" lon="12.123052341811002"><ele>500.0</ele><time>2026-04-08T17:06:58.001Z</time></trkpt><trkpt lat="43.931873383009986" lon="12.122975995900214"><ele>502.50000000000006</ele><time>2026-04-08T17:07:00.001Z</time></trkpt><trkpt lat="43.931939952012115" lon="12.122979546741215"><ele>505.0</ele><time>2026-04-08T17:07:01.001Z</time></trkpt><trkpt lat="43.932022534698945" lon="12.123031142198597"><ele>505.00000000000006</ele><time>2026-04-08T17:07:03.001Z</time></trkpt><trkpt lat="43.932106275387646" lon="12.123074595361512"><ele>505.0</ele><time>2026-04-08T17:07:05.001Z</time></trkpt><trkpt lat="43.93217631189916" lon="12.123092932301034"><ele>505.0</ele><time>2026-04-08T17:07:07.001Z</time></trkpt><trkpt lat="43.932242074815946" lon="12.123146404833378"><ele>505.0</ele><time>2026-04-08T17:07:09.001Z</time></trkpt><trkpt lat="43.932322864391445" lon="12.123241064847383"><ele>505.00000000000006</ele><time>2026-04-08T17:07:11.001Z</time></trkpt><trkpt lat="43.932404926212705" lon="12.123269892280037"><ele>505.0</ele><time>2026-04-08T17:07:13.001Z</time></trkpt><trkpt lat="43.932470934705066" lon="12.12325147200251"><ele>505.0</ele><time>2026-04-08T17:07:15.001Z</time></trkpt><trkpt lat="43.93253108599254" lon="12.123208955857338"><ele>505.0</ele><time>2026-04-08T17:07:17.001Z</time></trkpt><trkpt lat="43.93260367143991" lon="12.12314284785824"><ele>505.0</ele><time>2026-04-08T17:07:19.001Z</time></trkpt><trkpt lat="43.93270048898208" lon="12.123082679301838"><ele>505.0</ele><time>2026-04-08T17:07:21.001Z</time></trkpt><trkpt lat="43.93280163844964" lon="12.123044751903272"><ele>505.0</ele><time>2026-04-08T17:07:23.001Z</time></trkpt><trkpt lat="43.93289258316595" lon="12.123008126662379"><ele>506.2</ele><time>2026-04-08T17:07:27.001Z</time></trkpt><trkpt lat="43.9329472827872" lon="12.122938160991804"><ele>507.4</ele><time>2026-04-08T17:07:30.001Z</time></trkpt><trkpt lat="43.93309910789356" lon="12.122866275580122"><ele>508.6</ele><time>2026-04-08T17:07:32.001Z</time></trkpt><trkpt lat="43.93318172583872" lon="12.122831339174462"><ele>509.8</ele><time>2026-04-08T17:07:33.001Z</time></trkpt><trkpt lat="43.93324028680343" lon="12.122798407277894"><ele>511.0</ele><time>2026-04-08T17:07:34.001Z</time></trkpt><trkpt lat="43.93329642532815" lon="12.122742055279716"><ele>511.0</ele><time>2026-04-08T17:07:35.001Z</time></trkpt><trkpt lat="43.93335767811279" lon="12.122682049840698"><ele>511.0</ele><time>2026-04-08T17:07:36.001Z</time></trkpt><trkpt lat="43.933411839477834" lon="12.122606540863643"><ele>511.0</ele><time>2026-04-08T17:07:37.001Z</time></trkpt><trkpt lat="43.933454030892804" lon="12.122524573413045"><ele>511.0</ele><time>2026-04-08T17:07:38.001Z</time></trkpt><trkpt lat="43.93350489973659" lon="12.122454527449872"><ele>511.0</ele><time>2026-04-08T17:07:39.001Z</time></trkpt><trkpt lat="43.93355600849022" lon="12.12238062168397"><ele>511.0</ele><time>2026-04-08T17:07:40.001Z</time></trkpt><trkpt lat="43.93360969393497" lon="12.122313474195836"><ele>511.0</ele><time>2026-04-08T17:07:41.001Z</time></trkpt><trkpt lat="43.9336576804613" lon="12.12225056781044"><ele>512.7142857142857</ele><time>2026-04-08T17:07:42.001Z</time></trkpt><trkpt lat="43.93367036590814" lon="12.122145242359421"><ele>514.4285714285714</ele><time>2026-04-08T17:07:44.001Z</time></trkpt><trkpt lat="43.9336326440073" lon="12.122070106728597"><ele>516.1428571428571</ele><time>2026-04-08T17:07:48.001Z</time></trkpt><trkpt lat="43.93355897853819" lon="12.12208215280512"><ele>517.8571428571429</ele><time>2026-04-08T17:07:51.001Z</time></trkpt><trkpt lat="43.933494629536334" lon="12.12210679216341"><ele>519.5714285714286</ele><time>2026-04-08T17:08:45.001Z</time></trkpt><trkpt lat="43.93343208331676" lon="12.122092275285402"><ele>521.2857142857142</ele><time>2026-04-08T17:08:48.001Z</time></trkpt><trkpt lat="43.93335410582686" lon="12.122089334056147"><ele>523.0</ele><time>2026-04-08T17:08:50.001Z</time></trkpt><trkpt lat="43.933259368725956" lon="12.122082637766981"><ele>523.0</ele><time>2026-04-08T17:08:53.001Z</time></trkpt><trkpt lat="43.93316364328544" lon="12.122148392440662"><ele>523.0</ele><time>2026-04-08T17:08:55.001Z</time></trkpt><trkpt lat="43.93306969777229" lon="12.122174972255504"><ele>523.0</ele><time>2026-04-08T17:08:57.001Z</time></trkpt><trkpt lat="43.93298197149095" lon="12.122170386092044"><ele>523.0</ele><time>2026-04-08T17:08:59.001Z</time></trkpt><trkpt lat="43.932852893064656" lon="12.122217238559083"><ele>523.0</ele><time>2026-04-08T17:09:02.001Z</time></trkpt><trkpt lat="43.932727958109666" lon="12.12225183411724"><ele>523.0</ele><time>2026-04-08T17:09:03.001Z</time></trkpt><trkpt lat="43.93264320613756" lon="12.122270531887045"><ele>523.0</ele><time>2026-04-08T17:09:04.001Z</time></trkpt><trkpt lat="43.93250714071437" lon="12.122287366596284"><ele>523.0</ele><time>2026-04-08T17:09:06.001Z</time></trkpt><trkpt lat="43.932398222632905" lon="12.12229422997618"><ele>523.0</ele><time>2026-04-08T17:09:08.001Z</time></trkpt><trkpt lat="43.93230849735883" lon="12.122289875337115"><ele>523.0</ele><time>2026-04-08T17:09:10.001Z</time></trkpt><trkpt lat="43.93223895199076" lon="12.122277505188269"><ele>521.6</ele><time>2026-04-08T17:09:12.001Z</time></trkpt><trkpt lat="43.93214965095739" lon="12.122157995414124"><ele>520.1999999999999</ele><time>2026-04-08T17:09:14.001Z</time></trkpt><trkpt lat="43.93207891612683" lon="12.122111070510577"><ele>518.8</ele><time>2026-04-08T17:09:15Z</time></trkpt><trkpt lat="43.932015258852005" lon="12.122042937683638"><ele>517.4</ele><time>2026-04-08T17:09:16Z</time></trkpt><trkpt lat="43.93195570021911" lon="12.121961464361457"><ele>516.0</ele><time>2026-04-08T17:09:17Z</time></trkpt><trkpt lat="43.93187703031099" lon="12.121889337515025"><ele>516.0</ele><time>2026-04-08T17:09:18Z</time></trkpt><trkpt lat="43.93180641682844" lon="12.121796487216608"><ele>516.0</ele><time>2026-04-08T17:09:19Z</time></trkpt><trkpt lat="43.93171903835626" lon="12.121709581431885"><ele>516.0</ele><time>2026-04-08T17:09:20Z</time></trkpt><trkpt lat="43.93166590811119" lon="12.12161493761384"><ele>516.0</ele><time>2026-04-08T17:09:21Z</time></trkpt><trkpt lat="43.93157903659527" lon="12.121490572342008"><ele>516.0</ele><time>2026-04-08T17:09:22Z</time></trkpt><trkpt lat="43.93152984891739" lon="12.121419305865926"><ele>511.3333333333333</ele><time>2026-04-08T17:09:23Z</time></trkpt><trkpt lat="43.93146108338986" lon="12.121331485990787"><ele>506.66666666666663</ele><time>2026-04-08T17:09:24Z</time></trkpt><trkpt lat="43.93141658719957" lon="12.12123758684255"><ele>502.0</ele><time>2026-04-08T17:09:25Z</time></trkpt><trkpt lat="43.93136778251602" lon="12.121161923788176"><ele>497.3333333333333</ele><time>2026-04-08T17:09:26Z</time></trkpt><trkpt lat="43.931279256824936" lon="12.12106159509703"><ele>492.66666666666663</ele><time>2026-04-08T17:09:28.001Z</time></trkpt><trkpt lat="43.931250183419756" lon="12.120982093662398"><ele>488.0</ele><time>2026-04-08T17:09:29.001Z</time></trkpt><trkpt lat="43.931095943496466" lon="12.120839337150164"><ele>487.99999999999994</ele><time>2026-04-08T17:09:31.001Z</time></trkpt><trkpt lat="43.93100366217932" lon="12.120797432701814"><ele>488.0</ele><time>2026-04-08T17:09:32.001Z</time></trkpt><trkpt lat="43.93091634294793" lon="12.120758692479106"><ele>488.0</ele><time>2026-04-08T17:09:33.001Z</time></trkpt><trkpt lat="43.93084630150924" lon="12.120718672907927"><ele>488.0</ele><time>2026-04-08T17:09:34.001Z</time></trkpt><trkpt lat="43.93078000457243" lon="12.120652192538703"><ele>487.99999999999994</ele><time>2026-04-08T17:09:35.001Z</time></trkpt><trkpt lat="43.93071913806312" lon="12.12055943126037"><ele>488.0</ele><time>2026-04-08T17:09:36.001Z</time></trkpt><trkpt lat="43.93066900825584" lon="12.120473327953924"><ele>485.49999999999994</ele><time>2026-04-08T17:09:37.001Z</time></trkpt><trkpt lat="43.93062351659713" lon="12.120395953648865"><ele>483.0</ele><time>2026-04-08T17:09:38.001Z</time></trkpt><trkpt lat="43.93057247005385" lon="12.120307737924342"><ele>480.5</ele><time>2026-04-08T17:09:39.001Z</time></trkpt><trkpt lat="43.9305225413034" lon="12.120218809793123"><ele>478.0</ele><time>2026-04-08T17:09:40.001Z</time></trkpt><trkpt lat="43.930461695298995" lon="12.120110436937605"><ele>475.49999999999994</ele><time>2026-04-08T17:09:41.001Z</time></trkpt><trkpt lat="43.93040353403799" lon="12.120014691328246"><ele>473.0</ele><time>2026-04-08T17:09:42.001Z</time></trkpt><trkpt lat="43.930360882262" lon="12.119920299299633"><ele>469.4</ele><time>2026-04-08T17:09:43.001Z</time></trkpt><trkpt lat="43.93026508224109" lon="12.119776256257522"><ele>465.79999999999995</ele><time>2026-04-08T17:09:45.001Z</time></trkpt><trkpt lat="43.93019029883001" lon="12.11973672663467"><ele>462.2</ele><time>2026-04-08T17:09:46.001Z</time></trkpt><trkpt lat="43.9300895377276" lon="12.11975120979773"><ele>458.6</ele><time>2026-04-08T17:09:47.001Z</time></trkpt><trkpt lat="43.93001174589125" lon="12.119770186632007"><ele>455.0</ele><time>2026-04-08T17:09:48.001Z</time></trkpt><trkpt lat="43.92991543751435" lon="12.119858410594631"><ele>459.16666666666663</ele><time>2026-04-08T17:09:50.001Z</time></trkpt><trkpt lat="43.92988947844922" lon="12.119944053143314"><ele>463.3333333333333</ele><time>2026-04-08T17:09:51.001Z</time></trkpt><trkpt lat="43.92989166466724" lon="12.120050742227336"><ele>467.5</ele><time>2026-04-08T17:09:52.001Z</time></trkpt><trkpt lat="43.92993474232637" lon="12.120158669985685"><ele>471.66666666666663</ele><time>2026-04-08T17:09:53.001Z</time></trkpt><trkpt lat="43.92995135456437" lon="12.120271683358201"><ele>475.8333333333333</ele><time>2026-04-08T17:09:54.001Z</time></trkpt><trkpt lat="43.9299855486072" lon="12.120392856246799"><ele>480.0</ele><time>2026-04-08T17:09:55.001Z</time></trkpt><trkpt lat="43.93003254039096" lon="12.120512938128892"><ele>478.6</ele><time>2026-04-08T17:09:56.001Z</time></trkpt><trkpt lat="43.93009131425916" lon="12.120622085335217"><ele>477.2</ele><time>2026-04-08T17:09:57.001Z</time></trkpt><trkpt lat="43.93015869733212" lon="12.120723994742114"><ele>475.79999999999995</ele><time>2026-04-08T17:09:58.001Z</time></trkpt><trkpt lat="43.930211597085595" lon="12.120822348997434"><ele>474.4</ele><time>2026-04-08T17:09:59.001Z</time></trkpt><trkpt lat="43.930274179003845" lon="12.120923005263743"><ele>473.0</ele><time>2026-04-08T17:10:00.001Z</time></trkpt><trkpt lat="43.93032122643003" lon="12.12104065992402"><ele>478.75</ele><time>2026-04-08T17:10:01.001Z</time></trkpt><trkpt lat="43.930354838440756" lon="12.12117304202863"><ele>484.5</ele><time>2026-04-08T17:10:02.001Z</time></trkpt><trkpt lat="43.93038463202346" lon="12.121327813928644"><ele>490.25</ele><time>2026-04-08T17:10:03.001Z</time></trkpt><trkpt lat="43.930399864838755" lon="12.121499489744478"><ele>496.0</ele><time>2026-04-08T17:10:04.001Z</time></trkpt><trkpt lat="43.93040674603738" lon="12.12168013675604"><ele>496.6</ele><time>2026-04-08T17:10:05.001Z</time></trkpt><trkpt lat="43.93042987017358" lon="12.121845604751751"><ele>497.20000000000005</ele><time>2026-04-08T17:10:06.001Z</time></trkpt><trkpt lat="43.930446343042135" lon="12.122008424996446"><ele>497.79999999999995</ele><time>2026-04-08T17:10:07.001Z</time></trkpt><trkpt lat="43.93043840694531" lon="12.122148963852108"><ele>498.4</ele><time>2026-04-08T17:10:08.001Z</time></trkpt><trkpt lat="43.93044140963829" lon="12.122284395697426"><ele>499.0</ele><time>2026-04-08T17:10:09.001Z</time></trkpt><trkpt lat="43.93044259574786" lon="12.122409852482331"><ele>499.0</ele><time>2026-04-08T17:10:10.001Z</time></trkpt><trkpt lat="43.93044313947235" lon="12.122548392940413"><ele>499.0</ele><time>2026-04-08T17:10:11.001Z</time></trkpt><trkpt lat="43.93045232308501" lon="12.122675057215117"><ele>499.0</ele><time>2026-04-08T17:10:12.001Z</time></trkpt><trkpt lat="43.93041704467998" lon="12.122800627810596"><ele>499.0</ele><time>2026-04-08T17:10:13.001Z</time></trkpt><trkpt lat="43.93034887682637" lon="12.122897064705166"><ele>499.0</ele><time>2026-04-08T17:10:14.001Z</time></trkpt><trkpt lat="43.93028169576466" lon="12.123006673640774"><ele>499.0</ele><time>2026-04-08T17:10:15.001Z</time></trkpt><trkpt lat="43.93019786118056" lon="12.12309358026038"><ele>499.0</ele><time>2026-04-08T17:10:16.001Z</time></trkpt><trkpt lat="43.93012866008594" lon="12.123191783903323"><ele>499.0</ele><time>2026-04-08T17:10:17.001Z</time></trkpt><trkpt lat="43.93008513622404" lon="12.123321768601327"><ele>499.0</ele><time>2026-04-08T17:10:18.001Z</time></trkpt><trkpt lat="43.93005758611011" lon="12.123450837514513"><ele>499.0</ele><time>2026-04-08T17:10:19.001Z</time></trkpt><trkpt lat="43.93002679399059" lon="12.123597427461663"><ele>492.2</ele><time>2026-04-08T17:10:20.001Z</time></trkpt><trkpt lat="43.93001465401255" lon="12.123726813598758"><ele>485.4</ele><time>2026-04-08T17:10:21.001Z</time></trkpt><trkpt lat="43.929995876197985" lon="12.123863777876284"><ele>478.6</ele><time>2026-04-08T17:10:22.001Z</time></trkpt><trkpt lat="43.929977236706264" lon="12.123994625243302"><ele>471.8</ele><time>2026-04-08T17:10:23.001Z</time></trkpt><trkpt lat="43.929950399048" lon="12.124122221985495"><ele>465.0</ele><time>2026-04-08T17:10:24.001Z</time></trkpt><trkpt lat="43.92992653233059" lon="12.12424459300131"><ele>465.0</ele><time>2026-04-08T17:10:25.001Z</time></trkpt><trkpt lat="43.92991339834199" lon="12.124365171897653"><ele>465.0</ele><time>2026-04-08T17:10:26.001Z</time></trkpt><trkpt lat="43.92989909002996" lon="12.124484968111773"><ele>465.0</ele><time>2026-04-08T17:10:27.001Z</time></trkpt><trkpt lat="43.929869384976925" lon="12.124605436026963"><ele>465.0</ele><time>2026-04-08T17:10:28.001Z</time></trkpt><trkpt lat="43.929855253125716" lon="12.124721518017328"><ele>465.0</ele><time>2026-04-08T17:10:29.001Z</time></trkpt><trkpt lat="43.929843954164056" lon="12.124848703745272"><ele>465.0</ele><time>2026-04-08T17:10:30.001Z</time></trkpt><trkpt lat="43.929823084539734" lon="12.124978258276794"><ele>464.3333333333333</ele><time>2026-04-08T17:10:31.001Z</time></trkpt><trkpt lat="43.92979995190807" lon="12.125091315482619"><ele>463.66666666666663</ele><time>2026-04-08T17:10:32.001Z</time></trkpt><trkpt lat="43.92975608911657" lon="12.125189223988512"><ele>463.0</ele><time>2026-04-08T17:10:33.001Z</time></trkpt><trkpt lat="43.92969654853281" lon="12.125271053776476"><ele>462.3333333333333</ele><time>2026-04-08T17:10:34.001Z</time></trkpt><trkpt lat="43.92960954801679" lon="12.125285869556043"><ele>461.66666666666663</ele><time>2026-04-08T17:10:35.001Z</time></trkpt><trkpt lat="43.92951643789283" lon="12.125325343303015"><ele>461.0</ele><time>2026-04-08T17:10:36.001Z</time></trkpt><trkpt lat="43.92941556612578" lon="12.125335226379258"><ele>461.0</ele><time>2026-04-08T17:10:37.001Z</time></trkpt><trkpt lat="43.929310939492865" lon="12.125368944922142"><ele>461.0</ele><time>2026-04-08T17:10:38.001Z</time></trkpt><trkpt lat="43.92920816199285" lon="12.12540205201275"><ele>461.0</ele><time>2026-04-08T17:10:39.001Z</time></trkpt><trkpt lat="43.92909753773772" lon="12.125435989400021"><ele>461.0</ele><time>2026-04-08T17:10:40.001Z</time></trkpt><trkpt lat="43.92898029172971" lon="12.125462298653867"><ele>461.0</ele><time>2026-04-08T17:10:41.001Z</time></trkpt><trkpt lat="43.92885894566353" lon="12.125494061005172"><ele>457.4</ele><time>2026-04-08T17:10:42.001Z</time></trkpt><trkpt lat="43.92874872177919" lon="12.125518607398808"><ele>453.8</ele><time>2026-04-08T17:10:43.001Z</time></trkpt><trkpt lat="43.928640556842694" lon="12.125541541358979"><ele>450.19999999999993</ele><time>2026-04-08T17:10:44.001Z</time></trkpt><trkpt lat="43.928532125811316" lon="12.125551693449351"><ele>446.59999999999997</ele><time>2026-04-08T17:10:45.001Z</time></trkpt><trkpt lat="43.92843765308418" lon="12.125572259289365"><ele>443.0</ele><time>2026-04-08T17:10:46.001Z</time></trkpt><trkpt lat="43.928343653233554" lon="12.125603924292164"><ele>442.0</ele><time>2026-04-08T17:10:47.001Z</time></trkpt><trkpt lat="43.928245090130126" lon="12.12565856446392"><ele>440.99999999999994</ele><time>2026-04-08T17:10:48.001Z</time></trkpt><trkpt lat="43.928157058627235" lon="12.125719523692457"><ele>439.99999999999994</ele><time>2026-04-08T17:10:49.001Z</time></trkpt><trkpt lat="43.92807941883035" lon="12.125789004082257"><ele>439.0</ele><time>2026-04-08T17:10:50.001Z</time></trkpt><trkpt lat="43.92800480064847" lon="12.125853750188519"><ele>438.0</ele><time>2026-04-08T17:10:51.001Z</time></trkpt><trkpt lat="43.92793171662495" lon="12.125903465412556"><ele>438.0</ele><time>2026-04-08T17:10:52.001Z</time></trkpt><trkpt lat="43.927863006510194" lon="12.125918478836692"><ele>438.0</ele><time>2026-04-08T17:10:53.001Z</time></trkpt><trkpt lat="43.92778907350058" lon="12.12595279828354"><ele>438.0</ele><time>2026-04-08T17:10:54.001Z</time></trkpt><trkpt lat="43.92772353386058" lon="12.125960500585247"><ele>438.0</ele><time>2026-04-08T17:10:55.001Z</time></trkpt><trkpt lat="43.927653240996335" lon="12.125984776936532"><ele>438.0</ele><time>2026-04-08T17:10:56.001Z</time></trkpt><trkpt lat="43.92765129231053" lon="12.12585916120532"><ele>438.0</ele><time>2026-04-08T17:10:57.001Z</time></trkpt><trkpt lat="43.92740015821023" lon="12.126353334006659"><ele>437.59999999999997</ele><time>2026-04-08T17:10:59.001Z</time></trkpt><trkpt lat="43.927316046444936" lon="12.12639392668677"><ele>437.19999999999993</ele><time>2026-04-08T17:11:00.001Z</time></trkpt><trkpt lat="43.927261203269296" lon="12.126481819768404"><ele>436.8</ele><time>2026-04-08T17:11:01.001Z</time></trkpt><trkpt lat="43.92720932723827" lon="12.12660807960173"><ele>436.4</ele><time>2026-04-08T17:11:02.001Z</time></trkpt><trkpt lat="43.927167110582594" lon="12.126720593228361"><ele>436.0</ele><time>2026-04-08T17:11:03.001Z</time></trkpt><trkpt lat="43.927129547539145" lon="12.126853917647747"><ele>436.00000000000006</ele><time>2026-04-08T17:11:04.001Z</time></trkpt><trkpt lat="43.9270846691216" lon="12.126969922100649"><ele>436.0</ele><time>2026-04-08T17:11:05.001Z</time></trkpt><trkpt lat="43.92705936553599" lon="12.127069355761401"><ele>436.0</ele><time>2026-04-08T17:11:06.001Z</time></trkpt><trkpt lat="43.92701818237349" lon="12.127145810731463"><ele>436.0</ele><time>2026-04-08T17:11:07.001Z</time></trkpt><trkpt lat="43.92695847042924" lon="12.127218916919809"><ele>436.00000000000006</ele><time>2026-04-08T17:11:08.001Z</time></trkpt><trkpt lat="43.92686691204434" lon="12.12725309261279"><ele>436.0</ele><time>2026-04-08T17:11:09.001Z</time></trkpt><trkpt lat="43.926771600307006" lon="12.127309802030155"><ele>436.0</ele><time>2026-04-08T17:11:10.001Z</time></trkpt><trkpt lat="43.92668315188219" lon="12.127385601312742"><ele>436.0</ele><time>2026-04-08T17:11:11.001Z</time></trkpt><trkpt lat="43.926606300382886" lon="12.127476255043698"><ele>436.0</ele><time>2026-04-08T17:11:12.001Z</time></trkpt><trkpt lat="43.92653078732397" lon="12.127549557831848"><ele>436.0</ele><time>2026-04-08T17:11:13.001Z</time></trkpt><trkpt lat="43.926457861857344" lon="12.127643661836006"><ele>436.0</ele><time>2026-04-08T17:11:14.001Z</time></trkpt><trkpt lat="43.92638277845717" lon="12.127746424454996"><ele>436.0</ele><time>2026-04-08T17:11:15.001Z</time></trkpt><trkpt lat="43.926302859130956" lon="12.127862972787439"><ele>436.0</ele><time>2026-04-08T17:11:16.001Z</time></trkpt><trkpt lat="43.926213135946405" lon="12.127971030867286"><ele>436.0</ele><time>2026-04-08T17:11:17.001Z</time></trkpt><trkpt lat="43.92612022685368" lon="12.128066889863367"><ele>436.0</ele><time>2026-04-08T17:11:18.001Z</time></trkpt><trkpt lat="43.92603584546711" lon="12.128146290017872"><ele>436.00000000000006</ele><time>2026-04-08T17:11:19.001Z</time></trkpt><trkpt lat="43.925958280270414" lon="12.128219282144196"><ele>436.0</ele><time>2026-04-08T17:11:20.001Z</time></trkpt><trkpt lat="43.925893415099246" lon="12.128274238337966"><ele>436.0</ele><time>2026-04-08T17:11:21.001Z</time></trkpt><trkpt lat="43.925828420088806" lon="12.128326692982608"><ele>436.0</ele><time>2026-04-08T17:11:22.001Z</time></trkpt><trkpt lat="43.92576474123258" lon="12.12837675986932"><ele>436.00000000000006</ele><time>2026-04-08T17:11:23.001Z</time></trkpt><trkpt lat="43.92569476420307" lon="12.128389693319647"><ele>436.0</ele><time>2026-04-08T17:11:24.001Z</time></trkpt><trkpt lat="43.9256184380727" lon="12.128375233597149"><ele>433.4</ele><time>2026-04-08T17:11:25.001Z</time></trkpt><trkpt lat="43.92553875277718" lon="12.128343069820724"><ele>430.8</ele><time>2026-04-08T17:11:26.001Z</time></trkpt><trkpt lat="43.925460940193" lon="12.128298552839885"><ele>428.2</ele><time>2026-04-08T17:11:27.001Z</time></trkpt><trkpt lat="43.92536354990223" lon="12.128195335807545"><ele>425.59999999999997</ele><time>2026-04-08T17:11:29.001Z</time></trkpt><trkpt lat="43.92532581927234" lon="12.128032364412325"><ele>423.0</ele><time>2026-04-08T17:11:31.001Z</time></trkpt><trkpt lat="43.92526827839735" lon="12.128124516883931"><ele>423.0</ele><time>2026-04-08T17:11:34.001Z</time></trkpt><trkpt lat="43.92530440249153" lon="12.128218881194984"><ele>423.0</ele><time>2026-04-08T17:11:35.001Z</time></trkpt><trkpt lat="43.92525821727818" lon="12.128308075472315"><ele>423.0</ele><time>2026-04-08T17:11:38.001Z</time></trkpt><trkpt lat="43.925204075575806" lon="12.128444113123125"><ele>423.0</ele><time>2026-04-08T17:11:41.001Z</time></trkpt><trkpt lat="43.925148763083584" lon="12.128548629995905"><ele>423.0</ele><time>2026-04-08T17:11:44.001Z</time></trkpt><trkpt lat="43.92493565536562" lon="12.128851820014084"><ele>416.4</ele><time>2026-04-08T17:11:45.001Z</time></trkpt><trkpt lat="43.9248526157742" lon="12.128904561127493"><ele>409.79999999999995</ele><time>2026-04-08T17:11:46.001Z</time></trkpt><trkpt lat="43.92475269380099" lon="12.128958786173214"><ele>403.2</ele><time>2026-04-08T17:11:47.001Z</time></trkpt><trkpt lat="43.92466834948464" lon="12.128998007139039"><ele>396.6</ele><time>2026-04-08T17:11:48.001Z</time></trkpt><trkpt lat="43.92457783589585" lon="12.129052315253752"><ele>390.0</ele><time>2026-04-08T17:11:49.001Z</time></trkpt><trkpt lat="43.92449159267413" lon="12.129096295243606"><ele>389.8</ele><time>2026-04-08T17:11:50.001Z</time></trkpt><trkpt lat="43.92440230452628" lon="12.129145396484763"><ele>389.6</ele><time>2026-04-08T17:11:51.001Z</time></trkpt><trkpt lat="43.92431519855965" lon="12.129199590214776"><ele>389.4</ele><time>2026-04-08T17:11:52.001Z</time></trkpt><trkpt lat="43.92422830638349" lon="12.129259316055775"><ele>389.2</ele><time>2026-04-08T17:11:53.001Z</time></trkpt><trkpt lat="43.92413884613265" lon="12.129317912537841"><ele>389.0</ele><time>2026-04-08T17:11:54.001Z</time></trkpt><trkpt lat="43.92405569202776" lon="12.129374990791746"><ele>387.0</ele><time>2026-04-08T17:11:55.001Z</time></trkpt><trkpt lat="43.92398282143043" lon="12.129427344657035"><ele>385.0</ele><time>2026-04-08T17:11:56.001Z</time></trkpt><trkpt lat="43.923902359632606" lon="12.129480244865405"><ele>383.0</ele><time>2026-04-08T17:11:57.001Z</time></trkpt><trkpt lat="43.92381518140881" lon="12.129535504246736"><ele>381.0</ele><time>2026-04-08T17:11:58.001Z</time></trkpt><trkpt lat="43.92372193983808" lon="12.129588215854806"><ele>379.0</ele><time>2026-04-08T17:11:59.001Z</time></trkpt><trkpt lat="43.923620567881365" lon="12.12963748508448"><ele>379.0</ele><time>2026-04-08T17:12:00.001Z</time></trkpt><trkpt lat="43.92351978838973" lon="12.12968212688879"><ele>379.0</ele><time>2026-04-08T17:12:01.001Z</time></trkpt><trkpt lat="43.92341122965964" lon="12.129725765023805"><ele>379.0</ele><time>2026-04-08T17:12:02.001Z</time></trkpt><trkpt lat="43.923300755003254" lon="12.129776444264055"><ele>379.0</ele><time>2026-04-08T17:12:03.001Z</time></trkpt><trkpt lat="43.923175773024525" lon="12.129843242666952"><ele>377.0</ele><time>2026-04-08T17:12:04.001Z</time></trkpt><trkpt lat="43.9230638977795" lon="12.129899540269198"><ele>375.0</ele><time>2026-04-08T17:12:05.001Z</time></trkpt><trkpt lat="43.92296616073422" lon="12.129946759548194"><ele>373.0</ele><time>2026-04-08T17:12:06.001Z</time></trkpt><trkpt lat="43.922877233490425" lon="12.129985094692033"><ele>371.0</ele><time>2026-04-08T17:12:07.001Z</time></trkpt><trkpt lat="43.92277458636272" lon="12.130043464598089"><ele>369.0</ele><time>2026-04-08T17:12:08.001Z</time></trkpt><trkpt lat="43.92267463875273" lon="12.130086723006277"><ele>369.0</ele><time>2026-04-08T17:12:09.001Z</time></trkpt><trkpt lat="43.92258355573428" lon="12.130108088541672"><ele>369.0</ele><time>2026-04-08T17:12:10.001Z</time></trkpt><trkpt lat="43.92250638988395" lon="12.130128403199283"><ele>369.0</ele><time>2026-04-08T17:12:11.001Z</time></trkpt><trkpt lat="43.922438500060665" lon="12.130151346280174"><ele>369.0</ele><time>2026-04-08T17:12:12.001Z</time></trkpt><trkpt lat="43.92233732558186" lon="12.130151833810212"><ele>369.0</ele><time>2026-04-08T17:12:14.001Z</time></trkpt><trkpt lat="43.92227281788237" lon="12.130125304567075"><ele>369.0</ele><time>2026-04-08T17:12:16.001Z</time></trkpt><trkpt lat="43.92220965597716" lon="12.130092245519933"><ele>367.85714285714283</ele><time>2026-04-08T17:12:25.001Z</time></trkpt><trkpt lat="43.922160971024184" lon="12.1301494354085"><ele>366.71428571428567</ele><time>2026-04-08T17:12:28.001Z</time></trkpt><trkpt lat="43.92208905477967" lon="12.13018345005306"><ele>365.57142857142856</ele><time>2026-04-08T17:12:31.001Z</time></trkpt><trkpt lat="43.922022388478474" lon="12.130238054124698"><ele>364.42857142857144</ele><time>2026-04-08T17:12:34.001Z</time></trkpt><trkpt lat="43.92194115792764" lon="12.130268026169214"><ele>363.2857142857143</ele><time>2026-04-08T17:12:36.001Z</time></trkpt><trkpt lat="43.92188761195377" lon="12.13032761163505"><ele>362.14285714285717</ele><time>2026-04-08T17:12:38.001Z</time></trkpt><trkpt lat="43.92182332393738" lon="12.130370213832839"><ele>361.0</ele><time>2026-04-08T17:12:40.001Z</time></trkpt><trkpt lat="43.92176627253018" lon="12.13041746010008"><ele>356.7142857142857</ele><time>2026-04-08T17:12:42.001Z</time></trkpt><trkpt lat="43.92171142207119" lon="12.130471416852545"><ele>352.4285714285714</ele><time>2026-04-08T17:12:46.001Z</time></trkpt><trkpt lat="43.92165602941208" lon="12.130521626941713"><ele>348.1428571428571</ele><time>2026-04-08T17:12:49.001Z</time></trkpt><trkpt lat="43.92161047004124" lon="12.130589933251027"><ele>343.8571428571429</ele><time>2026-04-08T17:12:52.001Z</time></trkpt><trkpt lat="43.92161647938016" lon="12.130691243136527"><ele>339.57142857142856</ele><time>2026-04-08T17:12:56.001Z</time></trkpt><trkpt lat="43.921555014941454" lon="12.130713215436778"><ele>335.2857142857143</ele><time>2026-04-08T17:13:33.001Z</time></trkpt><trkpt lat="43.9214882686027" lon="12.130711422722753"><ele>331.0</ele><time>2026-04-08T17:13:36.001Z</time></trkpt><trkpt lat="43.921423284362795" lon="12.130767202879625"><ele>331.0</ele><time>2026-04-08T17:13:38.001Z</time></trkpt><trkpt lat="43.92136344431651" lon="12.13082556086992"><ele>331.0</ele><time>2026-04-08T17:13:43.001Z</time></trkpt><trkpt lat="43.92130144072101" lon="12.13090512353513"><ele>331.0</ele><time>2026-04-08T17:13:47.001Z</time></trkpt><trkpt lat="43.921285497005435" lon="12.130996354976753"><ele>331.0</ele><time>2026-04-08T17:13:51.001Z</time></trkpt><trkpt lat="43.921232405632566" lon="12.131060314567794"><ele>331.0</ele><time>2026-04-08T17:13:54.001Z</time></trkpt><trkpt lat="43.92116468484851" lon="12.131120251776142"><ele>331.0</ele><time>2026-04-08T17:13:57.001Z</time></trkpt><trkpt lat="43.921096236873744" lon="12.13117739570559"><ele>331.0</ele><time>2026-04-08T17:14:00.001Z</time></trkpt><trkpt lat="43.9210392930202" lon="12.131258131450215"><ele>331.0</ele><time>2026-04-08T17:14:04.001Z</time></trkpt><trkpt lat="43.92098292181752" lon="12.13130205849517"><ele>331.0</ele><time>2026-04-08T17:14:06.001Z</time></trkpt><trkpt lat="43.920930650476436" lon="12.13138515022914"><ele>331.0</ele><time>2026-04-08T17:14:09.001Z</time></trkpt><trkpt lat="43.920874883044476" lon="12.131465422275875"><ele>331.0</ele><time>2026-04-08T17:14:13.001Z</time></trkpt><trkpt lat="43.920789632239035" lon="12.131526866209395"><ele>331.0</ele><time>2026-04-08T17:14:16.001Z</time></trkpt><trkpt lat="43.920738772856026" lon="12.131617384864402"><ele>324.0</ele><time>2026-04-08T17:14:18.001Z</time></trkpt><trkpt lat="43.92068162259403" lon="12.131719639704661"><ele>317.0</ele><time>2026-04-08T17:14:20.001Z</time></trkpt><trkpt lat="43.92060746604158" lon="12.131829815394706"><ele>310.0</ele><time>2026-04-08T17:14:22.001Z</time></trkpt><trkpt lat="43.92054268337707" lon="12.13192688497158"><ele>303.0</ele><time>2026-04-08T17:14:24.001Z</time></trkpt><trkpt lat="43.92046626119576" lon="12.13201098084078"><ele>296.0</ele><time>2026-04-08T17:14:26.001Z</time></trkpt><trkpt lat="43.920392112759316" lon="12.132082923839361"><ele>296.0</ele><time>2026-04-08T17:14:28.001Z</time></trkpt><trkpt lat="43.920315324589424" lon="12.132143379845088"><ele>296.0</ele><time>2026-04-08T17:14:31.001Z</time></trkpt><trkpt lat="43.92030267898841" lon="12.132229687327381"><ele>296.0</ele><time>2026-04-08T17:14:51.001Z</time></trkpt><trkpt lat="43.920367696914724" lon="12.132156400121403"><ele>296.0</ele><time>2026-04-08T17:14:55.001Z</time></trkpt><trkpt lat="43.92039437435472" lon="12.13224395447354"><ele>296.0</ele><time>2026-04-08T17:14:59.001Z</time></trkpt><trkpt lat="43.920407679814254" lon="12.13212990565521"><ele>296.0</ele><time>2026-04-08T17:15:17.001Z</time></trkpt><trkpt lat="43.92045683868309" lon="12.132033784182456"><ele>296.0</ele><time>2026-04-08T17:15:19.001Z</time></trkpt><trkpt lat="43.92054034546348" lon="12.131964377782017"><ele>296.0</ele><time>2026-04-08T17:15:21.001Z</time></trkpt><trkpt lat="43.920650345037295" lon="12.131882271996615"><ele>296.0</ele><time>2026-04-08T17:15:23.001Z</time></trkpt><trkpt lat="43.92069865006368" lon="12.13182573833647"><ele>296.0</ele><time>2026-04-08T17:15:24.001Z</time></trkpt><trkpt lat="43.92077384157257" lon="12.131753359739715"><ele>296.0</ele><time>2026-04-08T17:15:26.001Z</time></trkpt><trkpt lat="43.92084444444398" lon="12.131749958675632"><ele>296.0</ele><time>2026-04-08T17:15:28.001Z</time></trkpt><trkpt lat="43.92091601943204" lon="12.131734710261066"><ele>296.0</ele><time>2026-04-08T17:15:30.001Z</time></trkpt><trkpt lat="43.92092395226492" lon="12.131872925134205"><ele>296.0</ele><time>2026-04-08T17:15:31.001Z</time></trkpt><trkpt lat="43.920845157543425" lon="12.131997167180877"><ele>296.0</ele><time>2026-04-08T17:15:33.001Z</time></trkpt><trkpt lat="43.92081278755068" lon="12.132114947002128"><ele>296.0</ele><time>2026-04-08T17:15:35.001Z</time></trkpt><trkpt lat="43.920845497238545" lon="12.132197379231469"><ele>296.0</ele><time>2026-04-08T17:15:37.001Z</time></trkpt><trkpt lat="43.92086054973984" lon="12.132340742229003"><ele>293.6666666666667</ele><time>2026-04-08T17:15:40.001Z</time></trkpt><trkpt lat="43.92080147541065" lon="12.132419796648886"><ele>291.33333333333337</ele><time>2026-04-08T17:15:42.001Z</time></trkpt><trkpt lat="43.920728903966314" lon="12.132510026636307"><ele>289.0</ele><time>2026-04-08T17:15:44.001Z</time></trkpt><trkpt lat="43.92076190266652" lon="12.132629751879055"><ele>286.6666666666667</ele><time>2026-04-08T17:15:47.001Z</time></trkpt><trkpt lat="43.92078796086913" lon="12.132709734455041"><ele>284.3333333333333</ele><time>2026-04-08T17:15:50.001Z</time></trkpt><trkpt lat="43.92075142051251" lon="12.132803120357051"><ele>282.0</ele><time>2026-04-08T17:15:53.001Z</time></trkpt><trkpt lat="43.92070017468639" lon="12.132944572316113"><ele>282.0</ele><time>2026-04-08T17:15:58Z</time></trkpt><trkpt lat="43.920681532789295" lon="12.133054609696588"><ele>282.0</ele><time>2026-04-08T17:16:01Z</time></trkpt><trkpt lat="43.92064703484202" lon="12.133142994174248"><ele>282.0</ele><time>2026-04-08T17:16:03Z</time></trkpt><trkpt lat="43.920663248574705" lon="12.133259830502135"><ele>282.0</ele><time>2026-04-08T17:16:05Z</time></trkpt><trkpt lat="43.920636914280635" lon="12.133378120710306"><ele>282.0</ele><time>2026-04-08T17:16:07Z</time></trkpt><trkpt lat="43.92063462416415" lon="12.133479784985608"><ele>282.0</ele><time>2026-04-08T17:16:10Z</time></trkpt><trkpt lat="43.92055816296344" lon="12.133562105466089"><ele>279.6</ele><time>2026-04-08T17:16:12Z</time></trkpt><trkpt lat="43.92045492808314" lon="12.13382583572172"><ele>277.2</ele><time>2026-04-08T17:16:15Z</time></trkpt><trkpt lat="43.9204521934918" lon="12.133972088621006"><ele>274.8</ele><time>2026-04-08T17:16:16Z</time></trkpt><trkpt lat="43.92042738707933" lon="12.134052438161307"><ele>272.4</ele><time>2026-04-08T17:16:17Z</time></trkpt><trkpt lat="43.920415995511064" lon="12.13413953968521"><ele>270.0</ele><time>2026-04-08T17:16:18Z</time></trkpt><trkpt lat="43.92040957449922" lon="12.13423448392247"><ele>270.0</ele><time>2026-04-08T17:16:19Z</time></trkpt><trkpt lat="43.92040680999792" lon="12.134348519424309"><ele>270.0</ele><time>2026-04-08T17:16:20Z</time></trkpt><trkpt lat="43.920422592619026" lon="12.134436867691749"><ele>270.0</ele><time>2026-04-08T17:16:21Z</time></trkpt><trkpt lat="43.92043977854526" lon="12.134530536006167"><ele>270.0</ele><time>2026-04-08T17:16:22Z</time></trkpt><trkpt lat="43.92046579803675" lon="12.134618264235424"><ele>270.0</ele><time>2026-04-08T17:16:23Z</time></trkpt><trkpt lat="43.92050199663014" lon="12.134704746904449"><ele>270.0</ele><time>2026-04-08T17:16:24Z</time></trkpt><trkpt lat="43.92053832276022" lon="12.134801456206523"><ele>270.0</ele><time>2026-04-08T17:16:25Z</time></trkpt><trkpt lat="43.920574907055084" lon="12.134896628321973"><ele>270.5</ele><time>2026-04-08T17:16:26Z</time></trkpt><trkpt lat="43.9206134337759" lon="12.134991930396898"><ele>271.0</ele><time>2026-04-08T17:16:27Z</time></trkpt><trkpt lat="43.92065484237176" lon="12.135090857032745"><ele>271.5</ele><time>2026-04-08T17:16:28Z</time></trkpt><trkpt lat="43.920691505156555" lon="12.135188466862685"><ele>272.0</ele><time>2026-04-08T17:16:29Z</time></trkpt><trkpt lat="43.920727143979285" lon="12.135288340386449"><ele>272.5</ele><time>2026-04-08T17:16:30Z</time></trkpt><trkpt lat="43.92076152270353" lon="12.135390148608618"><ele>273.0</ele><time>2026-04-08T17:16:31Z</time></trkpt><trkpt lat="43.920790723879705" lon="12.13549926653679"><ele>273.0</ele><time>2026-04-08T17:16:32Z</time></trkpt><trkpt lat="43.92081081767416" lon="12.135596224531493"><ele>273.0</ele><time>2026-04-08T17:16:33Z</time></trkpt><trkpt lat="43.92081618550997" lon="12.135685889602325"><ele>273.0</ele><time>2026-04-08T17:16:34Z</time></trkpt><trkpt lat="43.920744176976676" lon="12.13568462748537"><ele>273.0</ele><time>2026-04-08T17:16:35Z</time></trkpt><trkpt lat="43.92068482493648" lon="12.135730039657606"><ele>273.0</ele><time>2026-04-08T17:16:36Z</time></trkpt><trkpt lat="43.920604265912715" lon="12.135741799284428"><ele>273.0</ele><time>2026-04-08T17:16:37Z</time></trkpt><trkpt lat="43.92054035144069" lon="12.13575917261349"><ele>273.0</ele><time>2026-04-08T17:16:38Z</time></trkpt><trkpt lat="43.92044732526469" lon="12.135862118239281"><ele>274.6666666666667</ele><time>2026-04-08T17:16:40Z</time></trkpt><trkpt lat="43.92040407432314" lon="12.135937882571566"><ele>276.3333333333333</ele><time>2026-04-08T17:16:41Z</time></trkpt><trkpt lat="43.920349416579455" lon="12.136005053045093"><ele>278.0</ele><time>2026-04-08T17:16:42Z</time></trkpt><trkpt lat="43.92028893051554" lon="12.136053810705535"><ele>279.66666666666663</ele><time>2026-04-08T17:16:43Z</time></trkpt><trkpt lat="43.92022549713717" lon="12.136093231880887"><ele>281.3333333333333</ele><time>2026-04-08T17:16:44Z</time></trkpt><trkpt lat="43.920183242012094" lon="12.136165101734683"><ele>283.0</ele><time>2026-04-08T17:16:45Z</time></trkpt><trkpt lat="43.92012478183582" lon="12.136289970500435"><ele>279.66666666666663</ele><time>2026-04-08T17:16:47Z</time></trkpt><trkpt lat="43.92004132432997" lon="12.136353971854575"><ele>276.3333333333333</ele><time>2026-04-08T17:16:49Z</time></trkpt><trkpt lat="43.919964352901005" lon="12.136371043791902"><ele>273.0</ele><time>2026-04-08T17:16:50Z</time></trkpt><trkpt lat="43.919883716723675" lon="12.136407267215448"><ele>269.6666666666667</ele><time>2026-04-08T17:16:51.001Z</time></trkpt><trkpt lat="43.91982421395045" lon="12.136441193694479"><ele>266.33333333333337</ele><time>2026-04-08T17:16:52.001Z</time></trkpt><trkpt lat="43.91976354726475" lon="12.136484835739964"><ele>263.0</ele><time>2026-04-08T17:16:53.001Z</time></trkpt><trkpt lat="43.91970184032647" lon="12.136532387486428"><ele>263.5</ele><time>2026-04-08T17:16:54.001Z</time></trkpt><trkpt lat="43.91963986146595" lon="12.136580025959885"><ele>264.0</ele><time>2026-04-08T17:16:55.001Z</time></trkpt><trkpt lat="43.91952227862741" lon="12.136624439645734"><ele>264.5</ele><time>2026-04-08T17:16:57.001Z</time></trkpt><trkpt lat="43.91947692201785" lon="12.136700378910914"><ele>265.0</ele><time>2026-04-08T17:16:58.001Z</time></trkpt><trkpt lat="43.919495658021916" lon="12.136844651861171"><ele>265.5</ele><time>2026-04-08T17:17:00.001Z</time></trkpt><trkpt lat="43.91955394802572" lon="12.13688552411107"><ele>266.0</ele><time>2026-04-08T17:17:01.001Z</time></trkpt><trkpt lat="43.919606296468" lon="12.13694214258543"><ele>266.0</ele><time>2026-04-08T17:17:05.001Z</time></trkpt><trkpt lat="43.91953012300543" lon="12.136958540849237"><ele>266.0</ele><time>2026-04-08T17:17:08.001Z</time></trkpt><trkpt lat="43.91943545307735" lon="12.136962117007034"><ele>266.0</ele><time>2026-04-08T17:17:11.001Z</time></trkpt><trkpt lat="43.91930648015736" lon="12.13693254793755"><ele>266.0</ele><time>2026-04-08T17:17:14.001Z</time></trkpt><trkpt lat="43.91921860401959" lon="12.136848261653363"><ele>266.0</ele><time>2026-04-08T17:17:16.001Z</time></trkpt><trkpt lat="43.91915181456581" lon="12.136834773300185"><ele>264.2857142857143</ele><time>2026-04-08T17:17:19.001Z</time></trkpt><trkpt lat="43.919116912764935" lon="12.136748300554807"><ele>262.57142857142856</ele><time>2026-04-08T17:17:22.001Z</time></trkpt><trkpt lat="43.919067983712914" lon="12.13669130737314"><ele>260.8571428571429</ele><time>2026-04-08T17:17:27.001Z</time></trkpt><trkpt lat="43.919023984271426" lon="12.136757491983733"><ele>259.1428571428571</ele><time>2026-04-08T17:17:33.001Z</time></trkpt><trkpt lat="43.918944880909685" lon="12.136769098265123"><ele>257.42857142857144</ele><time>2026-04-08T17:17:48Z</time></trkpt><trkpt lat="43.91891652367769" lon="12.136689848431743"><ele>255.71428571428572</ele><time>2026-04-08T17:18:01Z</time></trkpt><trkpt lat="43.91889823431743" lon="12.136786463378764"><ele>254.0</ele><time>2026-04-08T17:18:18Z</time></trkpt><trkpt lat="43.91892343167964" lon="12.136884777481853"><ele>254.00000000000003</ele><time>2026-04-08T17:18:25Z</time></trkpt><trkpt lat="43.918938232061436" lon="12.136987450776132"><ele>254.0</ele><time>2026-04-08T17:18:27Z</time></trkpt><trkpt lat="43.918954250354346" lon="12.13712008601165"><ele>254.0</ele><time>2026-04-08T17:18:31Z</time></trkpt><trkpt lat="43.918990650995156" lon="12.137205921772118"><ele>254.0</ele><time>2026-04-08T17:18:35Z</time></trkpt><trkpt lat="43.919052153799804" lon="12.13722712200592"><ele>254.00000000000003</ele><time>2026-04-08T17:18:42Z</time></trkpt><trkpt lat="43.91911815658126" lon="12.137277314879675"><ele>254.0</ele><time>2026-04-08T17:18:45Z</time></trkpt><trkpt lat="43.919083459549555" lon="12.13737465863686"><ele>251.66666666666669</ele><time>2026-04-08T17:18:48Z</time></trkpt><trkpt lat="43.918994483375755" lon="12.13743013218527"><ele>249.33333333333334</ele><time>2026-04-08T17:18:51Z</time></trkpt><trkpt lat="43.918945020699354" lon="12.137489430926376"><ele>247.0</ele><time>2026-04-08T17:18:53Z</time></trkpt><trkpt lat="43.918906893578075" lon="12.137567743050395"><ele>244.66666666666669</ele><time>2026-04-08T17:18:55Z</time></trkpt><trkpt lat="43.91883397808994" lon="12.137619823784188"><ele>242.33333333333334</ele><time>2026-04-08T17:18:57Z</time></trkpt><trkpt lat="43.91874974853974" lon="12.137695171102681"><ele>240.0</ele><time>2026-04-08T17:18:59Z</time></trkpt><trkpt lat="43.918689020902136" lon="12.137755466379714"><ele>240.0</ele><time>2026-04-08T17:19:01Z</time></trkpt><trkpt lat="43.918611232698744" lon="12.137833095703515"><ele>240.0</ele><time>2026-04-08T17:19:03Z</time></trkpt><trkpt lat="43.91856263924891" lon="12.137946141762981"><ele>240.0</ele><time>2026-04-08T17:19:05Z</time></trkpt><trkpt lat="43.91849872112855" lon="12.138040463423536"><ele>240.0</ele><time>2026-04-08T17:19:07Z</time></trkpt><trkpt lat="43.91844976589627" lon="12.138126794424252"><ele>240.0</ele><time>2026-04-08T17:19:09Z</time></trkpt><trkpt lat="43.918375539440554" lon="12.138227180885254"><ele>236.8</ele><time>2026-04-08T17:19:11Z</time></trkpt><trkpt lat="43.918306999154794" lon="12.1383450811558"><ele>233.6</ele><time>2026-04-08T17:19:13Z</time></trkpt><trkpt lat="43.918277870998836" lon="12.138483718920906"><ele>230.39999999999998</ele><time>2026-04-08T17:19:15Z</time></trkpt><trkpt lat="43.91826688851743" lon="12.13857084023005"><ele>227.2</ele><time>2026-04-08T17:19:16Z</time></trkpt><trkpt lat="43.91824431862262" lon="12.138721351054407"><ele>224.0</ele><time>2026-04-08T17:19:18Z</time></trkpt><trkpt lat="43.918216973266425" lon="12.138838073298311"><ele>224.0</ele><time>2026-04-08T17:19:21Z</time></trkpt><trkpt lat="43.918148163828526" lon="12.138830445215538"><ele>223.99999999999997</ele><time>2026-04-08T17:19:23Z</time></trkpt><trkpt lat="43.91804366168943" lon="12.138810169455923"><ele>223.99999999999997</ele><time>2026-04-08T17:19:25Z</time></trkpt><trkpt lat="43.91792941163065" lon="12.138833331216583"><ele>224.0</ele><time>2026-04-08T17:19:27Z</time></trkpt><trkpt lat="43.91780390213509" lon="12.138857480330753"><ele>224.0</ele><time>2026-04-08T17:19:29Z</time></trkpt><trkpt lat="43.91773659185442" lon="12.138866849314239"><ele>224.00000000000003</ele><time>2026-04-08T17:19:30Z</time></trkpt><trkpt lat="43.9176717596457" lon="12.138879776140332"><ele>224.0</ele><time>2026-04-08T17:19:31Z</time></trkpt><trkpt lat="43.91760679303909" lon="12.138867691334507"><ele>224.0</ele><time>2026-04-08T17:19:32Z</time></trkpt><trkpt lat="43.917541472707946" lon="12.13887333690454"><ele>224.0</ele><time>2026-04-08T17:19:33Z</time></trkpt><trkpt lat="43.91741898487001" lon="12.138883923391566"><ele>224.00000000000003</ele><time>2026-04-08T17:19:35Z</time></trkpt><trkpt lat="43.91729336165422" lon="12.13889478088472"><ele>224.0</ele><time>2026-04-08T17:19:37Z</time></trkpt><trkpt lat="43.91717608021674" lon="12.138922541231393"><ele>222.25</ele><time>2026-04-08T17:19:39Z</time></trkpt><trkpt lat="43.917071521999006" lon="12.138945181958906"><ele>220.5</ele><time>2026-04-08T17:19:41Z</time></trkpt><trkpt lat="43.91698648532635" lon="12.139034643364191"><ele>218.75</ele><time>2026-04-08T17:19:43Z</time></trkpt><trkpt lat="43.91690113757619" lon="12.13914324044939"><ele>217.0</ele><time>2026-04-08T17:19:45Z</time></trkpt><trkpt lat="43.91680940143925" lon="12.139260379446464"><ele>216.99999999999997</ele><time>2026-04-08T17:19:47Z</time></trkpt><trkpt lat="43.91674764208737" lon="12.139363353930197"><ele>217.0</ele><time>2026-04-08T17:19:49Z</time></trkpt><trkpt lat="43.91669000620224" lon="12.139437519037378"><ele>217.0</ele><time>2026-04-08T17:19:51Z</time></trkpt><trkpt lat="43.91661702762372" lon="12.139447408173604"><ele>217.0</ele><time>2026-04-08T17:19:55Z</time></trkpt><trkpt lat="43.91655231607717" lon="12.139441693124398"><ele>216.99999999999997</ele><time>2026-04-08T17:19:58Z</time></trkpt><trkpt lat="43.91647557764184" lon="12.139451626839039"><ele>217.0</ele><time>2026-04-08T17:20:11Z</time></trkpt><trkpt lat="43.91634037638338" lon="12.13938681172039"><ele>219.49999999999997</ele><time>2026-04-08T17:20:12Z</time></trkpt><trkpt lat="43.9164306998088" lon="12.139245316703041"><ele>222.0</ele><time>2026-04-08T17:20:13Z</time></trkpt><trkpt lat="43.91647513742927" lon="12.139181336145617"><ele>224.5</ele><time>2026-04-08T17:20:16Z</time></trkpt><trkpt lat="43.91651504202048" lon="12.139113428154566"><ele>227.0</ele><time>2026-04-08T17:20:18Z</time></trkpt><trkpt lat="43.916553911631574" lon="12.139041076383045"><ele>229.49999999999997</ele><time>2026-04-08T17:20:21Z</time></trkpt><trkpt lat="43.91648538153903" lon="12.139005755027934"><ele>232.0</ele><time>2026-04-08T17:20:25Z</time></trkpt><trkpt lat="43.91642543299448" lon="12.138956946953215"><ele>234.16666666666666</ele><time>2026-04-08T17:20:27Z</time></trkpt><trkpt lat="43.91645726949985" lon="12.138865178545428"><ele>236.33333333333331</ele><time>2026-04-08T17:20:34Z</time></trkpt><trkpt lat="43.916521988399026" lon="12.138827500951534"><ele>238.5</ele><time>2026-04-08T17:20:36Z</time></trkpt><trkpt lat="43.916601655674306" lon="12.138792615741002"><ele>240.66666666666669</ele><time>2026-04-08T17:20:39Z</time></trkpt><trkpt lat="43.91650496862534" lon="12.138767769308743"><ele>242.83333333333334</ele><time>2026-04-08T17:20:46Z</time></trkpt><trkpt lat="43.91642193787971" lon="12.1387317663053"><ele>245.0</ele><time>2026-04-08T17:20:48Z</time></trkpt><trkpt lat="43.91637302514406" lon="12.138661764125876"><ele>245.00000000000003</ele><time>2026-04-08T17:20:50Z</time></trkpt><trkpt lat="43.916380026359796" lon="12.138566979178096"><ele>245.0</ele><time>2026-04-08T17:20:52Z</time></trkpt><trkpt lat="43.91641535641985" lon="12.13848219347327"><ele>245.0</ele><time>2026-04-08T17:20:54Z</time></trkpt><trkpt lat="43.916463298080615" lon="12.138360517789344"><ele>245.0</ele><time>2026-04-08T17:20:56Z</time></trkpt><trkpt lat="43.9164936597002" lon="12.138282092034483"><ele>245.00000000000003</ele><time>2026-04-08T17:20:57Z</time></trkpt><trkpt lat="43.91652064583183" lon="12.138184164871115"><ele>245.0</ele><time>2026-04-08T17:20:58Z</time></trkpt><trkpt lat="43.916564923083996" lon="12.138068629977061"><ele>245.6</ele><time>2026-04-08T17:20:59Z</time></trkpt><trkpt lat="43.916603688353405" lon="12.137947850772287"><ele>246.2</ele><time>2026-04-08T17:21:00Z</time></trkpt><trkpt lat="43.91663693263212" lon="12.137816522822197"><ele>246.8</ele><time>2026-04-08T17:21:01Z</time></trkpt><trkpt lat="43.916662112711634" lon="12.137674797383921"><ele>247.4</ele><time>2026-04-08T17:21:02Z</time></trkpt><trkpt lat="43.91668172772941" lon="12.137546421998922"><ele>248.0</ele><time>2026-04-08T17:21:03Z</time></trkpt><trkpt lat="43.91672313325765" lon="12.137411018631433"><ele>252.2</ele><time>2026-04-08T17:21:04Z</time></trkpt><trkpt lat="43.916818700114305" lon="12.137363528610432"><ele>256.4</ele><time>2026-04-08T17:21:05Z</time></trkpt><trkpt lat="43.91690335426603" lon="12.137278991381809"><ele>260.59999999999997</ele><time>2026-04-08T17:21:06Z</time></trkpt><trkpt lat="43.91697419152241" lon="12.137182038669241"><ele>264.8</ele><time>2026-04-08T17:21:07Z</time></trkpt><trkpt lat="43.91702111050208" lon="12.137097952787293"><ele>269.0</ele><time>2026-04-08T17:21:08Z</time></trkpt><trkpt lat="43.91707151295916" lon="12.137012020099624"><ele>269.0</ele><time>2026-04-08T17:21:09Z</time></trkpt><trkpt lat="43.917127387518086" lon="12.136919465599638"><ele>269.0</ele><time>2026-04-08T17:21:10Z</time></trkpt><trkpt lat="43.917182427571355" lon="12.136821711041662"><ele>269.0</ele><time>2026-04-08T17:21:11Z</time></trkpt><trkpt lat="43.917224866581684" lon="12.136728056375572"><ele>269.0</ele><time>2026-04-08T17:21:12Z</time></trkpt><trkpt lat="43.91725601806464" lon="12.136643521982807"><ele>269.0</ele><time>2026-04-08T17:21:13Z</time></trkpt><trkpt lat="43.91728472582637" lon="12.13656141785469"><ele>269.0</ele><time>2026-04-08T17:21:14Z</time></trkpt><trkpt lat="43.91730612879477" lon="12.13646018241287"><ele>269.6666666666667</ele><time>2026-04-08T17:21:15Z</time></trkpt><trkpt lat="43.91733958364975" lon="12.136362970161132"><ele>270.33333333333337</ele><time>2026-04-08T17:21:16Z</time></trkpt><trkpt lat="43.91736729446161" lon="12.136270737586834"><ele>271.0</ele><time>2026-04-08T17:21:17Z</time></trkpt><trkpt lat="43.917387428803224" lon="12.136184551531567"><ele>271.6666666666667</ele><time>2026-04-08T17:21:18Z</time></trkpt><trkpt lat="43.917382073554684" lon="12.136052367447505"><ele>272.3333333333333</ele><time>2026-04-08T17:21:20Z</time></trkpt><trkpt lat="43.917281528927354" lon="12.136056828868274"><ele>273.0</ele><time>2026-04-08T17:21:22Z</time></trkpt><trkpt lat="43.9172410286044" lon="12.136131772707827"><ele>273.0</ele><time>2026-04-08T17:21:23Z</time></trkpt><trkpt lat="43.917213711982235" lon="12.136251962938182"><ele>273.0</ele><time>2026-04-08T17:21:24Z</time></trkpt><trkpt lat="43.9171852608687" lon="12.136390573000671"><ele>273.0</ele><time>2026-04-08T17:21:25Z</time></trkpt><trkpt lat="43.91713204485027" lon="12.136527252933904"><ele>273.0</ele><time>2026-04-08T17:21:26Z</time></trkpt><trkpt lat="43.917048135409786" lon="12.136682780918981"><ele>273.0</ele><time>2026-04-08T17:21:27Z</time></trkpt><trkpt lat="43.91696255475523" lon="12.136820315539708"><ele>272.2</ele><time>2026-04-08T17:21:28Z</time></trkpt><trkpt lat="43.9168793171653" lon="12.136934323323906"><ele>271.4</ele><time>2026-04-08T17:21:29Z</time></trkpt><trkpt lat="43.91679755241835" lon="12.137020799037499"><ele>270.59999999999997</ele><time>2026-04-08T17:21:30Z</time></trkpt><trkpt lat="43.91670901411089" lon="12.13709243108342"><ele>269.8</ele><time>2026-04-08T17:21:31Z</time></trkpt><trkpt lat="43.91660701023082" lon="12.13712016185991"><ele>269.0</ele><time>2026-04-08T17:21:32Z</time></trkpt><trkpt lat="43.916509273514336" lon="12.137188084378103"><ele>264.8</ele><time>2026-04-08T17:21:33Z</time></trkpt><trkpt lat="43.91640652352265" lon="12.137219859972245"><ele>260.59999999999997</ele><time>2026-04-08T17:21:34Z</time></trkpt><trkpt lat="43.91631656924068" lon="12.137250495128564"><ele>256.4</ele><time>2026-04-08T17:21:35Z</time></trkpt><trkpt lat="43.916245784949076" lon="12.137307618804785"><ele>252.2</ele><time>2026-04-08T17:21:36Z</time></trkpt><trkpt lat="43.91619178846848" lon="12.137408095448412"><ele>248.0</ele><time>2026-04-08T17:21:37Z</time></trkpt><trkpt lat="43.916148952908145" lon="12.137504383808913"><ele>248.0</ele><time>2026-04-08T17:21:38Z</time></trkpt><trkpt lat="43.91613051400837" lon="12.137622644787317"><ele>248.0</ele><time>2026-04-08T17:21:39Z</time></trkpt><trkpt lat="43.91610051962858" lon="12.137712910316102"><ele>248.0</ele><time>2026-04-08T17:21:40Z</time></trkpt><trkpt lat="43.91606530887317" lon="12.137866628202753"><ele>248.0</ele><time>2026-04-08T17:21:42Z</time></trkpt><trkpt lat="43.91604846119752" lon="12.137969626456709"><ele>248.0</ele><time>2026-04-08T17:21:44Z</time></trkpt><trkpt lat="43.91595141966208" lon="12.137871189462373"><ele>248.0</ele><time>2026-04-08T17:21:47Z</time></trkpt><trkpt lat="43.915989455184565" lon="12.137793235647514"><ele>248.0</ele><time>2026-04-08T17:21:48Z</time></trkpt><trkpt lat="43.916027172833495" lon="12.137627870341804"><ele>248.0</ele><time>2026-04-08T17:21:50Z</time></trkpt><trkpt lat="43.91599066177896" lon="12.137475220719951"><ele>248.0</ele><time>2026-04-08T17:21:52Z</time></trkpt><trkpt lat="43.91597608614835" lon="12.13734355113424"><ele>248.0</ele><time>2026-04-08T17:21:54Z</time></trkpt><trkpt lat="43.915938038462556" lon="12.137249729061589"><ele>246.83333333333334</ele><time>2026-04-08T17:21:58Z</time></trkpt><trkpt lat="43.91590543536715" lon="12.137140416682918"><ele>245.66666666666669</ele><time>2026-04-08T17:22:01Z</time></trkpt><trkpt lat="43.915871945315544" lon="12.13704237314254"><ele>244.5</ele><time>2026-04-08T17:22:03Z</time></trkpt><trkpt lat="43.915804680324975" lon="12.137005477933386"><ele>243.33333333333331</ele><time>2026-04-08T17:22:05Z</time></trkpt><trkpt lat="43.91574407820957" lon="12.136980419407285"><ele>242.16666666666666</ele><time>2026-04-08T17:22:07Z</time></trkpt><trkpt lat="43.91566221778664" lon="12.136970161120509"><ele>241.0</ele><time>2026-04-08T17:22:09Z</time></trkpt><trkpt lat="43.91557745061068" lon="12.13689310705661"><ele>239.83333333333331</ele><time>2026-04-08T17:22:11Z</time></trkpt><trkpt lat="43.91551562847661" lon="12.136863687577662"><ele>238.66666666666666</ele><time>2026-04-08T17:22:13Z</time></trkpt><trkpt lat="43.91544578877947" lon="12.136810201884403"><ele>237.5</ele><time>2026-04-08T17:22:16Z</time></trkpt><trkpt lat="43.91543083009023" lon="12.136677267615193"><ele>236.33333333333331</ele><time>2026-04-08T17:22:19Z</time></trkpt><trkpt lat="43.91540671524474" lon="12.13657084909607"><ele>235.16666666666666</ele><time>2026-04-08T17:22:21Z</time></trkpt><trkpt lat="43.9153604669463" lon="12.136457833018707"><ele>234.0</ele><time>2026-04-08T17:22:23Z</time></trkpt><trkpt lat="43.915292955733804" lon="12.136399921597913"><ele>237.33333333333334</ele><time>2026-04-08T17:22:25Z</time></trkpt><trkpt lat="43.915239183984085" lon="12.1363327453365"><ele>240.66666666666669</ele><time>2026-04-08T17:22:27Z</time></trkpt><trkpt lat="43.915231486331585" lon="12.136234472029617"><ele>244.0</ele><time>2026-04-08T17:22:29Z</time></trkpt><trkpt lat="43.91523238869738" lon="12.136119408580505"><ele>247.33333333333334</ele><time>2026-04-08T17:22:31Z</time></trkpt><trkpt lat="43.91529153757099" lon="12.136069443301121"><ele>250.66666666666669</ele><time>2026-04-08T17:22:35Z</time></trkpt><trkpt lat="43.915362110720594" lon="12.136165811565757"><ele>254.0</ele><time>2026-04-08T17:22:37Z</time></trkpt><trkpt lat="43.91542883184485" lon="12.136226416074292"><ele>254.0</ele><time>2026-04-08T17:22:39Z</time></trkpt><trkpt lat="43.91548380719277" lon="12.136287320266689"><ele>253.99999999999997</ele><time>2026-04-08T17:22:40Z</time></trkpt><trkpt lat="43.9155782887713" lon="12.136375993122742"><ele>253.99999999999997</ele><time>2026-04-08T17:22:42Z</time></trkpt><trkpt lat="43.9156570063303" lon="12.136462792913502"><ele>254.0</ele><time>2026-04-08T17:22:44Z</time></trkpt><trkpt lat="43.91574101328656" lon="12.136399565000334"><ele>254.0</ele><time>2026-04-08T17:22:48Z</time></trkpt><trkpt lat="43.915780763429" lon="12.136506156728334"><ele>251.39999999999998</ele><time>2026-04-08T17:22:51Z</time></trkpt><trkpt lat="43.91573184581615" lon="12.136634958923077"><ele>248.79999999999998</ele><time>2026-04-08T17:22:53Z</time></trkpt><trkpt lat="43.9158025850291" lon="12.136788092105741"><ele>246.20000000000002</ele><time>2026-04-08T17:22:55Z</time></trkpt><trkpt lat="43.91584645469335" lon="12.136854973681471"><ele>243.60000000000002</ele><time>2026-04-08T17:22:57Z</time></trkpt><trkpt lat="43.91587506643524" lon="12.136944046072482"><ele>241.0</ele><time>2026-04-08T17:23:37Z</time></trkpt><trkpt lat="43.91591602569148" lon="12.137046581453347"><ele>241.0</ele><time>2026-04-08T17:23:40Z</time></trkpt><trkpt lat="43.91598242246297" lon="12.137142530855726"><ele>241.00000000000003</ele><time>2026-04-08T17:23:43Z</time></trkpt><trkpt lat="43.916048475552934" lon="12.137037439594533"><ele>241.00000000000003</ele><time>2026-04-08T17:23:45Z</time></trkpt><trkpt lat="43.916121349968854" lon="12.136952964226221"><ele>241.0</ele><time>2026-04-08T17:23:48Z</time></trkpt><trkpt lat="43.91607602119379" lon="12.136850897237256"><ele>241.0</ele><time>2026-04-08T17:23:51Z</time></trkpt><trkpt lat="43.91602938702703" lon="12.136757097147216"><ele>240.99999999999997</ele><time>2026-04-08T17:23:53Z</time></trkpt><trkpt lat="43.91599619251418" lon="12.136649882539993"><ele>241.0</ele><time>2026-04-08T17:23:55Z</time></trkpt><trkpt lat="43.91596909744121" lon="12.136547361603183"><ele>241.0</ele><time>2026-04-08T17:23:57Z</time></trkpt><trkpt lat="43.91595138319982" lon="12.136449866339296"><ele>241.0</ele><time>2026-04-08T17:23:59Z</time></trkpt><trkpt lat="43.91588363322079" lon="12.136366998397598"><ele>240.99999999999997</ele><time>2026-04-08T17:24:01Z</time></trkpt><trkpt lat="43.91581135252869" lon="12.136354761880124"><ele>241.0</ele><time>2026-04-08T17:24:04Z</time></trkpt><trkpt lat="43.91577505626945" lon="12.136264626832183"><ele>240.99999999999997</ele><time>2026-04-08T17:24:07Z</time></trkpt><trkpt lat="43.91584781041173" lon="12.13636806160976"><ele>241.0</ele><time>2026-04-08T17:24:43Z</time></trkpt><trkpt lat="43.91589946023488" lon="12.136491134470576"><ele>241.0</ele><time>2026-04-08T17:24:45Z</time></trkpt><trkpt lat="43.91595781195258" lon="12.136602792399298"><ele>241.0</ele><time>2026-04-08T17:24:47Z</time></trkpt><trkpt lat="43.91600438097792" lon="12.136669937669815"><ele>240.99999999999997</ele><time>2026-04-08T17:24:49Z</time></trkpt><trkpt lat="43.91603748098858" lon="12.136756870659786"><ele>241.0</ele><time>2026-04-08T17:24:51Z</time></trkpt><trkpt lat="43.916076627811044" lon="12.136851085299664"><ele>240.99999999999997</ele><time>2026-04-08T17:24:53Z</time></trkpt><trkpt lat="43.916128013679895" lon="12.136919886181616"><ele>241.0</ele><time>2026-04-08T17:24:56Z</time></trkpt><trkpt lat="43.91610445431739" lon="12.136835650596549"><ele>241.0</ele><time>2026-04-08T17:25:00Z</time></trkpt><trkpt lat="43.91605278387994" lon="12.136759173513783"><ele>241.0</ele><time>2026-04-08T17:25:02Z</time></trkpt><trkpt lat="43.91600248767217" lon="12.136650284469349"><ele>240.99999999999997</ele><time>2026-04-08T17:25:04Z</time></trkpt><trkpt lat="43.915955301161766" lon="12.136522212803015"><ele>241.0</ele><time>2026-04-08T17:25:06Z</time></trkpt><trkpt lat="43.915903272521135" lon="12.13639916907866"><ele>243.16666666666666</ele><time>2026-04-08T17:25:09Z</time></trkpt><trkpt lat="43.91581697383342" lon="12.136327384840708"><ele>245.33333333333331</ele><time>2026-04-08T17:25:12Z</time></trkpt><trkpt lat="43.91575782700268" lon="12.13624703762363"><ele>247.5</ele><time>2026-04-08T17:25:14Z</time></trkpt><trkpt lat="43.91573197720615" lon="12.136163659620959"><ele>249.66666666666669</ele><time>2026-04-08T17:25:50Z</time></trkpt><trkpt lat="43.91566424256409" lon="12.136155424507306"><ele>251.83333333333334</ele><time>2026-04-08T17:25:52Z</time></trkpt><trkpt lat="43.915596382908156" lon="12.136093107309037"><ele>254.0</ele><time>2026-04-08T17:25:56Z</time></trkpt><trkpt lat="43.91565238704704" lon="12.136135708921158"><ele>254.00000000000003</ele><time>2026-04-08T17:26:49Z</time></trkpt><trkpt lat="43.91571144906162" lon="12.136189007442864"><ele>254.0</ele><time>2026-04-08T17:26:53Z</time></trkpt><trkpt lat="43.91576014152832" lon="12.136281909056928"><ele>254.0</ele><time>2026-04-08T17:26:57Z</time></trkpt><trkpt lat="43.91581356396214" lon="12.13634271451548"><ele>254.0</ele><time>2026-04-08T17:27:00Z</time></trkpt><trkpt lat="43.91575615430398" lon="12.136490148448914"><ele>254.00000000000003</ele><time>2026-04-08T17:27:05Z</time></trkpt><trkpt lat="43.91572910883481" lon="12.136583291299297"><ele>254.0</ele><time>2026-04-08T17:27:07Z</time></trkpt><trkpt lat="43.9157054162676" lon="12.13667508308199"><ele>250.66666666666669</ele><time>2026-04-08T17:27:09Z</time></trkpt><trkpt lat="43.91563275059346" lon="12.136717116398868"><ele>247.33333333333334</ele><time>2026-04-08T17:27:12Z</time></trkpt><trkpt lat="43.91554491296375" lon="12.136711312737015"><ele>244.0</ele><time>2026-04-08T17:27:14Z</time></trkpt><trkpt lat="43.91550136809652" lon="12.136803373011194"><ele>240.66666666666669</ele><time>2026-04-08T17:27:17Z</time></trkpt><trkpt lat="43.91547889334565" lon="12.13688704635605"><ele>237.33333333333334</ele><time>2026-04-08T17:27:19Z</time></trkpt><trkpt lat="43.91549368216685" lon="12.137012578272754"><ele>234.0</ele><time>2026-04-08T17:27:21Z</time></trkpt><trkpt lat="43.915542425403274" lon="12.137153629856515"><ele>234.0</ele><time>2026-04-08T17:27:23Z</time></trkpt><trkpt lat="43.91559578883845" lon="12.13728932347591"><ele>234.0</ele><time>2026-04-08T17:27:25Z</time></trkpt><trkpt lat="43.915601781427135" lon="12.137391147234442"><ele>234.0</ele><time>2026-04-08T17:27:27Z</time></trkpt><trkpt lat="43.91567237562288" lon="12.137406034662614"><ele>234.0</ele><time>2026-04-08T17:27:30Z</time></trkpt><trkpt lat="43.91570447570697" lon="12.137274490804764"><ele>234.0</ele><time>2026-04-08T17:27:32Z</time></trkpt><trkpt lat="43.91575545511057" lon="12.13721236041059"><ele>234.0</ele><time>2026-04-08T17:27:34Z</time></trkpt><trkpt lat="43.91582193150378" lon="12.137180475307174"><ele>234.0</ele><time>2026-04-08T17:27:36Z</time></trkpt><trkpt lat="43.915819728257894" lon="12.137092725548053"><ele>234.0</ele><time>2026-04-08T17:27:38Z</time></trkpt><trkpt lat="43.91572130989045" lon="12.137043919520428"><ele>234.0</ele><time>2026-04-08T17:27:40Z</time></trkpt><trkpt lat="43.915652609843974" lon="12.136976716119653"><ele>234.0</ele><time>2026-04-08T17:27:42Z</time></trkpt><trkpt lat="43.915565344087305" lon="12.13692298630233"><ele>234.0</ele><time>2026-04-08T17:27:44Z</time></trkpt><trkpt lat="43.91547913510071" lon="12.136862888258081"><ele>234.0</ele><time>2026-04-08T17:27:47Z</time></trkpt><trkpt lat="43.91543595134874" lon="12.136797545059645"><ele>234.0</ele><time>2026-04-08T17:27:50Z</time></trkpt><trkpt lat="43.91550031034024" lon="12.136707056437404"><ele>233.99999999999997</ele><time>2026-04-08T17:27:52Z</time></trkpt><trkpt lat="43.91557382160915" lon="12.136721230844225"><ele>233.99999999999997</ele><time>2026-04-08T17:27:57Z</time></trkpt><trkpt lat="43.91567322884218" lon="12.136812263503776"><ele>234.0</ele><time>2026-04-08T17:28:01Z</time></trkpt><trkpt lat="43.915682118948844" lon="12.13697426988757"><ele>234.0</ele><time>2026-04-08T17:28:03Z</time></trkpt><trkpt lat="43.91567954295884" lon="12.137074023630825"><ele>234.0</ele><time>2026-04-08T17:28:04Z</time></trkpt><trkpt lat="43.91573880327952" lon="12.137164077182982"><ele>234.0</ele><time>2026-04-08T17:28:06Z</time></trkpt><trkpt lat="43.915819414988434" lon="12.137167198587187"><ele>234.0</ele><time>2026-04-08T17:28:08Z</time></trkpt><trkpt lat="43.91587569312007" lon="12.137222387535385"><ele>234.0</ele><time>2026-04-08T17:28:11Z</time></trkpt><trkpt lat="43.91592830928663" lon="12.137315179748091"><ele>234.0</ele><time>2026-04-08T17:28:15Z</time></trkpt><trkpt lat="43.91595474509588" lon="12.13746662199716"><ele>234.0</ele><time>2026-04-08T17:28:17Z</time></trkpt><trkpt lat="43.91598048964202" lon="12.137566021265917"><ele>236.33333333333334</ele><time>2026-04-08T17:28:18Z</time></trkpt><trkpt lat="43.91600543712196" lon="12.137646843200297"><ele>238.66666666666669</ele><time>2026-04-08T17:28:19Z</time></trkpt><trkpt lat="43.91601476081366" lon="12.137810724234212"><ele>241.0</ele><time>2026-04-08T17:28:21Z</time></trkpt><trkpt lat="43.91598040870699" lon="12.137900085339847"><ele>243.33333333333334</ele><time>2026-04-08T17:28:22Z</time></trkpt><trkpt lat="43.915956477402695" lon="12.13798446134972"><ele>245.66666666666669</ele><time>2026-04-08T17:28:24Z</time></trkpt><trkpt lat="43.91606333775829" lon="12.137944328109961"><ele>248.0</ele><time>2026-04-08T17:28:27Z</time></trkpt><trkpt lat="43.916096389088764" lon="12.137830302903444"><ele>248.00000000000003</ele><time>2026-04-08T17:28:28Z</time></trkpt><trkpt lat="43.91611393671006" lon="12.137724768122505"><ele>248.0</ele><time>2026-04-08T17:28:29Z</time></trkpt><trkpt lat="43.91611529962127" lon="12.1376045696915"><ele>248.0</ele><time>2026-04-08T17:28:30Z</time></trkpt><trkpt lat="43.916149775504316" lon="12.137506287173764"><ele>248.0</ele><time>2026-04-08T17:28:31Z</time></trkpt><trkpt lat="43.91619719472396" lon="12.137396845839875"><ele>248.00000000000003</ele><time>2026-04-08T17:28:32Z</time></trkpt><trkpt lat="43.91624215716102" lon="12.137297702630127"><ele>248.0</ele><time>2026-04-08T17:28:33Z</time></trkpt><trkpt lat="43.91629946273518" lon="12.137249909537609"><ele>246.60000000000002</ele><time>2026-04-08T17:28:34Z</time></trkpt><trkpt lat="43.91636889941591" lon="12.137214971590332"><ele>245.20000000000002</ele><time>2026-04-08T17:28:35Z</time></trkpt><trkpt lat="43.91646380550398" lon="12.137198825142123"><ele>243.8</ele><time>2026-04-08T17:28:36Z</time></trkpt><trkpt lat="43.91654831749859" lon="12.137178925705257"><ele>242.4</ele><time>2026-04-08T17:28:37Z</time></trkpt><trkpt lat="43.916644550344394" lon="12.137131318520316"><ele>241.0</ele><time>2026-04-08T17:28:39Z</time></trkpt><trkpt lat="43.91674357811658" lon="12.137058535397987"><ele>246.60000000000002</ele><time>2026-04-08T17:28:42Z</time></trkpt><trkpt lat="43.916807077675394" lon="12.137007569930695"><ele>252.20000000000002</ele><time>2026-04-08T17:28:43Z</time></trkpt><trkpt lat="43.916876829185846" lon="12.136945835543445"><ele>257.79999999999995</ele><time>2026-04-08T17:28:44Z</time></trkpt><trkpt lat="43.91694630362021" lon="12.136865209137133"><ele>263.4</ele><time>2026-04-08T17:28:45Z</time></trkpt><trkpt lat="43.91701168890084" lon="12.136747002702744"><ele>269.0</ele><time>2026-04-08T17:28:46Z</time></trkpt><trkpt lat="43.91707999217528" lon="12.136627412280944"><ele>269.6666666666667</ele><time>2026-04-08T17:28:47Z</time></trkpt><trkpt lat="43.91713507236181" lon="12.136519248645174"><ele>270.33333333333337</ele><time>2026-04-08T17:28:48Z</time></trkpt><trkpt lat="43.91717047566315" lon="12.136429136812371"><ele>271.0</ele><time>2026-04-08T17:28:49Z</time></trkpt><trkpt lat="43.9172009556956" lon="12.136340104231444"><ele>271.6666666666667</ele><time>2026-04-08T17:28:50Z</time></trkpt><trkpt lat="43.91722842660385" lon="12.13624620709261"><ele>272.3333333333333</ele><time>2026-04-08T17:28:51Z</time></trkpt><trkpt lat="43.917252605805395" lon="12.136152456587302"><ele>273.0</ele><time>2026-04-08T17:28:52Z</time></trkpt><trkpt lat="43.91729649372293" lon="12.136020192241508"><ele>273.0</ele><time>2026-04-08T17:28:54Z</time></trkpt><trkpt lat="43.917369658686226" lon="12.136076751034373"><ele>273.0</ele><time>2026-04-08T17:28:57Z</time></trkpt><trkpt lat="43.91736972832072" lon="12.136164328311798"><ele>273.0</ele><time>2026-04-08T17:29:17Z</time></trkpt><trkpt lat="43.917407136847395" lon="12.136271943400647"><ele>273.0</ele><time>2026-04-08T17:29:19Z</time></trkpt><trkpt lat="43.91736280119784" lon="12.13641771195447"><ele>273.0</ele><time>2026-04-08T17:29:21Z</time></trkpt><trkpt lat="43.91733534636888" lon="12.136512149045208"><ele>273.0</ele><time>2026-04-08T17:29:22Z</time></trkpt><trkpt lat="43.91730701763167" lon="12.136627103432385"><ele>272.3333333333333</ele><time>2026-04-08T17:29:23Z</time></trkpt><trkpt lat="43.91726807703572" lon="12.13672324103591"><ele>271.6666666666667</ele><time>2026-04-08T17:29:24Z</time></trkpt><trkpt lat="43.91723289095356" lon="12.1368327483206"><ele>271.0</ele><time>2026-04-08T17:29:25Z</time></trkpt><trkpt lat="43.91719505018171" lon="12.136940550042837"><ele>270.33333333333337</ele><time>2026-04-08T17:29:26Z</time></trkpt><trkpt lat="43.91714511169376" lon="12.137023423593245"><ele>269.6666666666667</ele><time>2026-04-08T17:29:27Z</time></trkpt><trkpt lat="43.91711199851835" lon="12.137110425476527"><ele>269.0</ele><time>2026-04-08T17:29:28Z</time></trkpt><trkpt lat="43.91704515962429" lon="12.137212536263666"><ele>269.0</ele><time>2026-04-08T17:29:30Z</time></trkpt><trkpt lat="43.91698580433212" lon="12.137276662619977"><ele>269.0</ele><time>2026-04-08T17:29:34Z</time></trkpt><trkpt lat="43.91696704705419" lon="12.137368182496706"><ele>269.0</ele><time>2026-04-08T17:29:37Z</time></trkpt><trkpt lat="43.91699031067709" lon="12.1374702375213"><ele>261.0</ele><time>2026-04-08T17:29:41Z</time></trkpt><trkpt lat="43.91698521498608" lon="12.137378653018075"><ele>269.0</ele><time>2026-04-08T17:30:32Z</time></trkpt><trkpt lat="43.9168916424251" lon="12.137439511841281"><ele>261.0</ele><time>2026-04-08T17:30:41Z</time></trkpt></trkseg></trk></gpx>